<?xml version="1.0" encoding="utf-8"?>
<gpx xmlns:xsi="http://www.w3.org/2001/XMLSchema-instance" xmlns:xsd="http://www.w3.org/2001/XMLSchema" version="1.1" creator="Shapelink.com" xmlns="http://www.topografix.com/GPX/1/1" xmlns:gpxtpx="http://www.garmin.com/xmlschemas/TrackPointExtension/v1">
  <metadata>
    <name>Ejecutar 13.08 km, 2019-10-25</name>
    <desc></desc>
    <author><name>Per Rooth</name></author> 
    <time>2019-10-25T09:27:07Z</time>
  </metadata>
  <trk>
    <name>Ejecutar 13.08 km, 2019-10-25</name>
    <trkseg>
      <trkpt lat="28.230999857425" lon="-13.990522991776">
        <ele>15.6</ele>
        <time>2019-10-25T09:27:07Z</time>
      </trkpt>
      <trkpt lat="28.231108486849" lon="-13.990452583816">
        <ele>16.4</ele>
        <time>2019-10-25T09:27:11Z</time>
      </trkpt>
      <trkpt lat="28.23121485316" lon="-13.99031897633">
        <ele>16.4</ele>
        <time>2019-10-25T09:27:15Z</time>
      </trkpt>
      <trkpt lat="28.231300851454" lon="-13.990112865409">
        <ele>17.2</ele>
        <time>2019-10-25T09:27:20Z</time>
      </trkpt>
      <trkpt lat="28.231396656571" lon="-13.989925697582">
        <ele>17.2</ele>
        <time>2019-10-25T09:27:25Z</time>
      </trkpt>
      <trkpt lat="28.231493551335" lon="-13.989722771783">
        <ele>18</ele>
        <time>2019-10-25T09:27:31Z</time>
      </trkpt>
      <trkpt lat="28.23154090907" lon="-13.989621686069">
        <ele>18.4</ele>
        <time>2019-10-25T09:27:34Z</time>
      </trkpt>
      <trkpt lat="28.231631182133" lon="-13.989418424994">
        <ele>19</ele>
        <time>2019-10-25T09:27:40Z</time>
      </trkpt>
      <trkpt lat="28.231669068321" lon="-13.989314070339">
        <ele>19.4</ele>
        <time>2019-10-25T09:27:43Z</time>
      </trkpt>
      <trkpt lat="28.231720952282" lon="-13.98916395051">
        <ele>20.6</ele>
        <time>2019-10-25T09:27:47Z</time>
      </trkpt>
      <trkpt lat="28.231760263393" lon="-13.98901139993">
        <ele>21.8</ele>
        <time>2019-10-25T09:27:51Z</time>
      </trkpt>
      <trkpt lat="28.231813991372" lon="-13.988808641769">
        <ele>22.8</ele>
        <time>2019-10-25T09:27:56Z</time>
      </trkpt>
      <trkpt lat="28.231824133471" lon="-13.988767235183">
        <ele>23</ele>
        <time>2019-10-25T09:27:57Z</time>
      </trkpt>
      <trkpt lat="28.231866210609" lon="-13.988554837837">
        <ele>22.4</ele>
        <time>2019-10-25T09:28:02Z</time>
      </trkpt>
      <trkpt lat="28.231876771803" lon="-13.988475461244">
        <ele>22</ele>
        <time>2019-10-25T09:28:04Z</time>
      </trkpt>
      <trkpt lat="28.231911305231" lon="-13.988239678397">
        <ele>22.8</ele>
        <time>2019-10-25T09:28:10Z</time>
      </trkpt>
      <trkpt lat="28.231938546406" lon="-13.988028035422">
        <ele>22.6</ele>
        <time>2019-10-25T09:28:16Z</time>
      </trkpt>
      <trkpt lat="28.231976181137" lon="-13.987852769893">
        <ele>23</ele>
        <time>2019-10-25T09:28:21Z</time>
      </trkpt>
      <trkpt lat="28.232023622691" lon="-13.987622854376">
        <ele>23</ele>
        <time>2019-10-25T09:28:27Z</time>
      </trkpt>
      <trkpt lat="28.232047427287" lon="-13.987389669918">
        <ele>23.6</ele>
        <time>2019-10-25T09:28:33Z</time>
      </trkpt>
      <trkpt lat="28.23204801402" lon="-13.987168136301">
        <ele>23.2</ele>
        <time>2019-10-25T09:28:39Z</time>
      </trkpt>
      <trkpt lat="28.232098053963" lon="-13.986958840258">
        <ele>23.2</ele>
        <time>2019-10-25T09:28:45Z</time>
      </trkpt>
      <trkpt lat="28.232184219895" lon="-13.986851719576">
        <ele>24.2</ele>
        <time>2019-10-25T09:28:49Z</time>
      </trkpt>
      <trkpt lat="28.232385469314" lon="-13.986789777335">
        <ele>23.4</ele>
        <time>2019-10-25T09:28:54Z</time>
      </trkpt>
      <trkpt lat="28.232426624443" lon="-13.986785334928">
        <ele>23</ele>
        <time>2019-10-25T09:28:55Z</time>
      </trkpt>
      <trkpt lat="28.232617061211" lon="-13.986786676032">
        <ele>23.2</ele>
        <time>2019-10-25T09:29:00Z</time>
      </trkpt>
      <trkpt lat="28.232829290919" lon="-13.986771253336">
        <ele>22.2</ele>
        <time>2019-10-25T09:29:06Z</time>
      </trkpt>
      <trkpt lat="28.232865165451" lon="-13.986769325499">
        <ele>21.8</ele>
        <time>2019-10-25T09:29:07Z</time>
      </trkpt>
      <trkpt lat="28.233047220319" lon="-13.986757590839">
        <ele>22.4</ele>
        <time>2019-10-25T09:29:12Z</time>
      </trkpt>
      <trkpt lat="28.233220474192" lon="-13.98674325779">
        <ele>22.8</ele>
        <time>2019-10-25T09:29:17Z</time>
      </trkpt>
      <trkpt lat="28.233418622308" lon="-13.98672397942">
        <ele>23.6</ele>
        <time>2019-10-25T09:29:23Z</time>
      </trkpt>
      <trkpt lat="28.233523982791" lon="-13.986710400742">
        <ele>24.2</ele>
        <time>2019-10-25T09:29:26Z</time>
      </trkpt>
      <trkpt lat="28.233664463435" lon="-13.986699168996">
        <ele>25.2</ele>
        <time>2019-10-25T09:29:30Z</time>
      </trkpt>
      <trkpt lat="28.233867221596" lon="-13.986682153739">
        <ele>26</ele>
        <time>2019-10-25T09:29:36Z</time>
      </trkpt>
      <trkpt lat="28.234027734981" lon="-13.986665389939">
        <ele>26.4</ele>
        <time>2019-10-25T09:29:41Z</time>
      </trkpt>
      <trkpt lat="28.234226972744" lon="-13.986650973071">
        <ele>26.4</ele>
        <time>2019-10-25T09:29:47Z</time>
      </trkpt>
      <trkpt lat="28.234386899396" lon="-13.986634376909">
        <ele>27.4</ele>
        <time>2019-10-25T09:29:52Z</time>
      </trkpt>
      <trkpt lat="28.234554034482" lon="-13.98661082377">
        <ele>28.4</ele>
        <time>2019-10-25T09:29:57Z</time>
      </trkpt>
      <trkpt lat="28.234745141802" lon="-13.986567405528">
        <ele>28.8</ele>
        <time>2019-10-25T09:30:03Z</time>
      </trkpt>
      <trkpt lat="28.234942954642" lon="-13.986535135213">
        <ele>29.4</ele>
        <time>2019-10-25T09:30:09Z</time>
      </trkpt>
      <trkpt lat="28.234975644052" lon="-13.986532788281">
        <ele>29.6</ele>
        <time>2019-10-25T09:30:10Z</time>
      </trkpt>
      <trkpt lat="28.235102210742" lon="-13.986526334218">
        <ele>30.6</ele>
        <time>2019-10-25T09:30:14Z</time>
      </trkpt>
      <trkpt lat="28.23519793204" lon="-13.986521472716">
        <ele>31.6</ele>
        <time>2019-10-25T09:30:17Z</time>
      </trkpt>
      <trkpt lat="28.235389123179" lon="-13.986476378094">
        <ele>32.2</ele>
        <time>2019-10-25T09:30:23Z</time>
      </trkpt>
      <trkpt lat="28.235571513323" lon="-13.986426505789">
        <ele>32.6</ele>
        <time>2019-10-25T09:30:29Z</time>
      </trkpt>
      <trkpt lat="28.235602526353" lon="-13.986420387002">
        <ele>32.8</ele>
        <time>2019-10-25T09:30:30Z</time>
      </trkpt>
      <trkpt lat="28.235759267883" lon="-13.986379399511">
        <ele>34</ele>
        <time>2019-10-25T09:30:35Z</time>
      </trkpt>
      <trkpt lat="28.235933192308" lon="-13.986312260492">
        <ele>34</ele>
        <time>2019-10-25T09:30:41Z</time>
      </trkpt>
      <trkpt lat="28.236041570275" lon="-13.986255850305">
        <ele>35.2</ele>
        <time>2019-10-25T09:30:45Z</time>
      </trkpt>
      <trkpt lat="28.236119689583" lon="-13.986213856986">
        <ele>36.2</ele>
        <time>2019-10-25T09:30:48Z</time>
      </trkpt>
      <trkpt lat="28.236286908488" lon="-13.98612383538">
        <ele>36.4</ele>
        <time>2019-10-25T09:30:54Z</time>
      </trkpt>
      <trkpt lat="28.236451948099" lon="-13.986038172362">
        <ele>36.8</ele>
        <time>2019-10-25T09:31:00Z</time>
      </trkpt>
      <trkpt lat="28.236512465417" lon="-13.986014954499">
        <ele>37.4</ele>
        <time>2019-10-25T09:31:02Z</time>
      </trkpt>
      <trkpt lat="28.236628973827" lon="-13.985962232348">
        <ele>38.4</ele>
        <time>2019-10-25T09:31:06Z</time>
      </trkpt>
      <trkpt lat="28.236803401166" lon="-13.985878916262">
        <ele>38.6</ele>
        <time>2019-10-25T09:31:12Z</time>
      </trkpt>
      <trkpt lat="28.236941870154" lon="-13.985809095035">
        <ele>39.4</ele>
        <time>2019-10-25T09:31:17Z</time>
      </trkpt>
      <trkpt lat="28.237059803487" lon="-13.985754445047">
        <ele>40.6</ele>
        <time>2019-10-25T09:31:21Z</time>
      </trkpt>
      <trkpt lat="28.237235152835" lon="-13.98567288916">
        <ele>40.8</ele>
        <time>2019-10-25T09:31:27Z</time>
      </trkpt>
      <trkpt lat="28.23738141699" lon="-13.985606504512">
        <ele>41.6</ele>
        <time>2019-10-25T09:31:32Z</time>
      </trkpt>
      <trkpt lat="28.237485687826" lon="-13.98554716066">
        <ele>42.6</ele>
        <time>2019-10-25T09:31:36Z</time>
      </trkpt>
      <trkpt lat="28.237670341083" lon="-13.985449343887">
        <ele>43.2</ele>
        <time>2019-10-25T09:31:42Z</time>
      </trkpt>
      <trkpt lat="28.237847785906" lon="-13.985363513231">
        <ele>43.6</ele>
        <time>2019-10-25T09:31:48Z</time>
      </trkpt>
      <trkpt lat="28.238026907109" lon="-13.985279023679">
        <ele>44.6</ele>
        <time>2019-10-25T09:31:54Z</time>
      </trkpt>
      <trkpt lat="28.238055237931" lon="-13.985265780277">
        <ele>45</ele>
        <time>2019-10-25T09:31:55Z</time>
      </trkpt>
      <trkpt lat="28.238167220115" lon="-13.985211800841">
        <ele>46.2</ele>
        <time>2019-10-25T09:31:59Z</time>
      </trkpt>
      <trkpt lat="28.238334858115" lon="-13.985127898022">
        <ele>46.4</ele>
        <time>2019-10-25T09:32:05Z</time>
      </trkpt>
      <trkpt lat="28.238468381782" lon="-13.985059669356">
        <ele>47.4</ele>
        <time>2019-10-25T09:32:10Z</time>
      </trkpt>
      <trkpt lat="28.238572317342" lon="-13.984999738771">
        <ele>48.6</ele>
        <time>2019-10-25T09:32:14Z</time>
      </trkpt>
      <trkpt lat="28.238736854039" lon="-13.9849151654">
        <ele>48.8</ele>
        <time>2019-10-25T09:32:20Z</time>
      </trkpt>
      <trkpt lat="28.238898205614" lon="-13.98482044993">
        <ele>49.4</ele>
        <time>2019-10-25T09:32:26Z</time>
      </trkpt>
      <trkpt lat="28.238977666026" lon="-13.984780300629">
        <ele>49.8</ele>
        <time>2019-10-25T09:32:29Z</time>
      </trkpt>
      <trkpt lat="28.239068442003" lon="-13.984735541283">
        <ele>50.8</ele>
        <time>2019-10-25T09:32:32Z</time>
      </trkpt>
      <trkpt lat="28.239130803339" lon="-13.984705785538">
        <ele>51.8</ele>
        <time>2019-10-25T09:32:34Z</time>
      </trkpt>
      <trkpt lat="28.239318725537" lon="-13.984650632636">
        <ele>52.8</ele>
        <time>2019-10-25T09:32:40Z</time>
      </trkpt>
      <trkpt lat="28.239504384622" lon="-13.984621295986">
        <ele>52.2</ele>
        <time>2019-10-25T09:32:46Z</time>
      </trkpt>
      <trkpt lat="28.239603374861" lon="-13.984613500819">
        <ele>53</ele>
        <time>2019-10-25T09:32:49Z</time>
      </trkpt>
      <trkpt lat="28.239667915491" lon="-13.984607633489">
        <ele>54</ele>
        <time>2019-10-25T09:32:51Z</time>
      </trkpt>
      <trkpt lat="28.239769504119" lon="-13.984599083951">
        <ele>55.2</ele>
        <time>2019-10-25T09:32:54Z</time>
      </trkpt>
      <trkpt lat="28.239975112126" lon="-13.984595982648">
        <ele>55.6</ele>
        <time>2019-10-25T09:33:00Z</time>
      </trkpt>
      <trkpt lat="28.240127578887" lon="-13.984600508874">
        <ele>56.4</ele>
        <time>2019-10-25T09:33:05Z</time>
      </trkpt>
      <trkpt lat="28.240188263843" lon="-13.98460671148">
        <ele>57.4</ele>
        <time>2019-10-25T09:33:07Z</time>
      </trkpt>
      <trkpt lat="28.24028490715" lon="-13.984622720909">
        <ele>58.4</ele>
        <time>2019-10-25T09:33:10Z</time>
      </trkpt>
      <trkpt lat="28.240490347519" lon="-13.984662954029">
        <ele>59.6</ele>
        <time>2019-10-25T09:33:17Z</time>
      </trkpt>
      <trkpt lat="28.240574166519" lon="-13.984681394209">
        <ele>60.8</ele>
        <time>2019-10-25T09:33:20Z</time>
      </trkpt>
      <trkpt lat="28.24068053283" lon="-13.984713580705">
        <ele>62</ele>
        <time>2019-10-25T09:33:24Z</time>
      </trkpt>
      <trkpt lat="28.240858648205" lon="-13.984752891816">
        <ele>63.2</ele>
        <time>2019-10-25T09:33:30Z</time>
      </trkpt>
      <trkpt lat="28.241008768034" lon="-13.984776696412">
        <ele>64.4</ele>
        <time>2019-10-25T09:33:35Z</time>
      </trkpt>
      <trkpt lat="28.241194175662" lon="-13.98480452432">
        <ele>65.4</ele>
        <time>2019-10-25T09:33:41Z</time>
      </trkpt>
      <trkpt lat="28.241226613615" lon="-13.984807793261">
        <ele>66</ele>
        <time>2019-10-25T09:33:42Z</time>
      </trkpt>
      <trkpt lat="28.241413027071" lon="-13.984828664192">
        <ele>66.4</ele>
        <time>2019-10-25T09:33:48Z</time>
      </trkpt>
      <trkpt lat="28.241586448582" lon="-13.984855486272">
        <ele>67</ele>
        <time>2019-10-25T09:33:53Z</time>
      </trkpt>
      <trkpt lat="28.241767246165" lon="-13.984876105746">
        <ele>66.6</ele>
        <time>2019-10-25T09:33:58Z</time>
      </trkpt>
      <trkpt lat="28.241949133395" lon="-13.984904520387">
        <ele>67</ele>
        <time>2019-10-25T09:34:03Z</time>
      </trkpt>
      <trkpt lat="28.242130098616" lon="-13.984938131806">
        <ele>66.4</ele>
        <time>2019-10-25T09:34:08Z</time>
      </trkpt>
      <trkpt lat="28.242308465448" lon="-13.984979622211">
        <ele>66.4</ele>
        <time>2019-10-25T09:34:13Z</time>
      </trkpt>
      <trkpt lat="28.242487083737" lon="-13.985023794824">
        <ele>67</ele>
        <time>2019-10-25T09:34:18Z</time>
      </trkpt>
      <trkpt lat="28.242686572957" lon="-13.985050533085">
        <ele>65.8</ele>
        <time>2019-10-25T09:34:24Z</time>
      </trkpt>
      <trkpt lat="28.242871980585" lon="-13.985038295511">
        <ele>65.8</ele>
        <time>2019-10-25T09:34:29Z</time>
      </trkpt>
      <trkpt lat="28.243082030999" lon="-13.984979957487">
        <ele>66.2</ele>
        <time>2019-10-25T09:34:35Z</time>
      </trkpt>
      <trkpt lat="28.243191666251" lon="-13.984950453199">
        <ele>67</ele>
        <time>2019-10-25T09:34:38Z</time>
      </trkpt>
      <trkpt lat="28.243363998115" lon="-13.984868310579">
        <ele>67.6</ele>
        <time>2019-10-25T09:34:43Z</time>
      </trkpt>
      <trkpt lat="28.24353708435" lon="-13.984740486604">
        <ele>66.8</ele>
        <time>2019-10-25T09:34:49Z</time>
      </trkpt>
      <trkpt lat="28.243684941066" lon="-13.984586092006">
        <ele>67.6</ele>
        <time>2019-10-25T09:34:55Z</time>
      </trkpt>
      <trkpt lat="28.243732885534" lon="-13.984532783122">
        <ele>68.2</ele>
        <time>2019-10-25T09:34:57Z</time>
      </trkpt>
      <trkpt lat="28.243817542724" lon="-13.984417867273">
        <ele>69.4</ele>
        <time>2019-10-25T09:35:01Z</time>
      </trkpt>
      <trkpt lat="28.243947965088" lon="-13.984250061635">
        <ele>69</ele>
        <time>2019-10-25T09:35:07Z</time>
      </trkpt>
      <trkpt lat="28.244079477099" lon="-13.984078065047">
        <ele>69.4</ele>
        <time>2019-10-25T09:35:13Z</time>
      </trkpt>
      <trkpt lat="28.244168409058" lon="-13.983960215533">
        <ele>70.6</ele>
        <time>2019-10-25T09:35:17Z</time>
      </trkpt>
      <trkpt lat="28.244281564708" lon="-13.983820237803">
        <ele>71.6</ele>
        <time>2019-10-25T09:35:22Z</time>
      </trkpt>
      <trkpt lat="28.244393043978" lon="-13.983683529014">
        <ele>71.2</ele>
        <time>2019-10-25T09:35:27Z</time>
      </trkpt>
      <trkpt lat="28.244535117183" lon="-13.983518908498">
        <ele>71.4</ele>
        <time>2019-10-25T09:35:33Z</time>
      </trkpt>
      <trkpt lat="28.24464600972" lon="-13.983380271872">
        <ele>72.6</ele>
        <time>2019-10-25T09:35:38Z</time>
      </trkpt>
      <trkpt lat="28.244763775415" lon="-13.983236019373">
        <ele>73.8</ele>
        <time>2019-10-25T09:35:43Z</time>
      </trkpt>
      <trkpt lat="28.24488405568" lon="-13.983041726931">
        <ele>74.6</ele>
        <time>2019-10-25T09:35:49Z</time>
      </trkpt>
      <trkpt lat="28.245010287094" lon="-13.982853972371">
        <ele>74.4</ele>
        <time>2019-10-25T09:35:55Z</time>
      </trkpt>
      <trkpt lat="28.245133165748" lon="-13.982666804544">
        <ele>74.6</ele>
        <time>2019-10-25T09:36:01Z</time>
      </trkpt>
      <trkpt lat="28.245195191808" lon="-13.98257242435">
        <ele>75</ele>
        <time>2019-10-25T09:36:04Z</time>
      </trkpt>
      <trkpt lat="28.24532326724" lon="-13.982376958442">
        <ele>76</ele>
        <time>2019-10-25T09:36:10Z</time>
      </trkpt>
      <trkpt lat="28.245421251651" lon="-13.982163471449">
        <ele>76.2</ele>
        <time>2019-10-25T09:36:16Z</time>
      </trkpt>
      <trkpt lat="28.245480679322" lon="-13.981930119353">
        <ele>75.8</ele>
        <time>2019-10-25T09:36:22Z</time>
      </trkpt>
      <trkpt lat="28.245499873873" lon="-13.981700287655">
        <ele>76.4</ele>
        <time>2019-10-25T09:36:28Z</time>
      </trkpt>
      <trkpt lat="28.24549928714" lon="-13.98159006567">
        <ele>77.4</ele>
        <time>2019-10-25T09:36:31Z</time>
      </trkpt>
      <trkpt lat="28.245498029855" lon="-13.981479843685">
        <ele>78.4</ele>
        <time>2019-10-25T09:36:34Z</time>
      </trkpt>
      <trkpt lat="28.245476488372" lon="-13.981255544041">
        <ele>78.4</ele>
        <time>2019-10-25T09:36:40Z</time>
      </trkpt>
      <trkpt lat="28.245451929405" lon="-13.981026382895">
        <ele>78.8</ele>
        <time>2019-10-25T09:36:46Z</time>
      </trkpt>
      <trkpt lat="28.245437344899" lon="-13.980871904478">
        <ele>79.6</ele>
        <time>2019-10-25T09:36:50Z</time>
      </trkpt>
      <trkpt lat="28.245422844212" lon="-13.980685910117">
        <ele>80.8</ele>
        <time>2019-10-25T09:36:55Z</time>
      </trkpt>
      <trkpt lat="28.245416557787" lon="-13.980539478324">
        <ele>82</ele>
        <time>2019-10-25T09:36:59Z</time>
      </trkpt>
      <trkpt lat="28.245402392376" lon="-13.980391370151">
        <ele>83.4</ele>
        <time>2019-10-25T09:37:03Z</time>
      </trkpt>
      <trkpt lat="28.245381772902" lon="-13.980179140443">
        <ele>84.2</ele>
        <time>2019-10-25T09:37:09Z</time>
      </trkpt>
      <trkpt lat="28.245370373518" lon="-13.980074869607">
        <ele>84.4</ele>
        <time>2019-10-25T09:37:12Z</time>
      </trkpt>
      <trkpt lat="28.24534254561" lon="-13.979865322107">
        <ele>85</ele>
        <time>2019-10-25T09:37:18Z</time>
      </trkpt>
      <trkpt lat="28.245336845918" lon="-13.979792734853">
        <ele>85.4</ele>
        <time>2019-10-25T09:37:20Z</time>
      </trkpt>
      <trkpt lat="28.245322512869" lon="-13.979658708272">
        <ele>86.6</ele>
        <time>2019-10-25T09:37:24Z</time>
      </trkpt>
      <trkpt lat="28.245308012182" lon="-13.979560723861">
        <ele>87.6</ele>
        <time>2019-10-25T09:37:27Z</time>
      </trkpt>
      <trkpt lat="28.245284123767" lon="-13.979349751438">
        <ele>88.4</ele>
        <time>2019-10-25T09:37:33Z</time>
      </trkpt>
      <trkpt lat="28.245262414646" lon="-13.97913081621">
        <ele>88.6</ele>
        <time>2019-10-25T09:37:39Z</time>
      </trkpt>
      <trkpt lat="28.245258139877" lon="-13.979096198963">
        <ele>88.8</ele>
        <time>2019-10-25T09:37:40Z</time>
      </trkpt>
      <trkpt lat="28.24524615376" lon="-13.978991425213">
        <ele>90</ele>
        <time>2019-10-25T09:37:43Z</time>
      </trkpt>
      <trkpt lat="28.245224444639" lon="-13.978815070037">
        <ele>91</ele>
        <time>2019-10-25T09:37:48Z</time>
      </trkpt>
      <trkpt lat="28.245200137129" lon="-13.978594877524">
        <ele>91</ele>
        <time>2019-10-25T09:37:54Z</time>
      </trkpt>
      <trkpt lat="28.245174404696" lon="-13.978460096572">
        <ele>92.4</ele>
        <time>2019-10-25T09:37:58Z</time>
      </trkpt>
      <trkpt lat="28.245145906236" lon="-13.978324309792">
        <ele>93.4</ele>
        <time>2019-10-25T09:38:02Z</time>
      </trkpt>
      <trkpt lat="28.245097039759" lon="-13.978113337369">
        <ele>93.8</ele>
        <time>2019-10-25T09:38:08Z</time>
      </trkpt>
      <trkpt lat="28.245034594604" lon="-13.977910160113">
        <ele>94.6</ele>
        <time>2019-10-25T09:38:14Z</time>
      </trkpt>
      <trkpt lat="28.244996121683" lon="-13.977807900933">
        <ele>95.8</ele>
        <time>2019-10-25T09:38:17Z</time>
      </trkpt>
      <trkpt lat="28.244914062882" lon="-13.977611261559">
        <ele>96.2</ele>
        <time>2019-10-25T09:38:23Z</time>
      </trkpt>
      <trkpt lat="28.244844409293" lon="-13.977465248861">
        <ele>96.8</ele>
        <time>2019-10-25T09:38:28Z</time>
      </trkpt>
      <trkpt lat="28.244788418201" lon="-13.977337424886">
        <ele>98.2</ele>
        <time>2019-10-25T09:38:32Z</time>
      </trkpt>
      <trkpt lat="28.244715160395" lon="-13.977145814652">
        <ele>98.8</ele>
        <time>2019-10-25T09:38:38Z</time>
      </trkpt>
      <trkpt lat="28.24467199361" lon="-13.977054703399">
        <ele>99.2</ele>
        <time>2019-10-25T09:38:41Z</time>
      </trkpt>
      <trkpt lat="28.244615667242" lon="-13.976936183333">
        <ele>100.4</ele>
        <time>2019-10-25T09:38:45Z</time>
      </trkpt>
      <trkpt lat="28.244543079988" lon="-13.976782878382">
        <ele>101.4</ele>
        <time>2019-10-25T09:38:50Z</time>
      </trkpt>
      <trkpt lat="28.244448867432" lon="-13.976604679188">
        <ele>102.2</ele>
        <time>2019-10-25T09:38:56Z</time>
      </trkpt>
      <trkpt lat="28.244408215217" lon="-13.976515411953">
        <ele>102.8</ele>
        <time>2019-10-25T09:38:59Z</time>
      </trkpt>
      <trkpt lat="28.244364629337" lon="-13.976428156374">
        <ele>104</ele>
        <time>2019-10-25T09:39:02Z</time>
      </trkpt>
      <trkpt lat="28.244308302969" lon="-13.976270409016">
        <ele>105</ele>
        <time>2019-10-25T09:39:07Z</time>
      </trkpt>
      <trkpt lat="28.244224567788" lon="-13.976058933679">
        <ele>106</ele>
        <time>2019-10-25T09:39:14Z</time>
      </trkpt>
      <trkpt lat="28.244211492024" lon="-13.976027333916">
        <ele>106.2</ele>
        <time>2019-10-25T09:39:15Z</time>
      </trkpt>
      <trkpt lat="28.244179892261" lon="-13.975935803568">
        <ele>107.4</ele>
        <time>2019-10-25T09:39:18Z</time>
      </trkpt>
      <trkpt lat="28.244148711593" lon="-13.975716281607">
        <ele>108</ele>
        <time>2019-10-25T09:39:25Z</time>
      </trkpt>
      <trkpt lat="28.244154411285" lon="-13.975648472036">
        <ele>108.4</ele>
        <time>2019-10-25T09:39:27Z</time>
      </trkpt>
      <trkpt lat="28.244179724623" lon="-13.975513942541">
        <ele>109.8</ele>
        <time>2019-10-25T09:39:31Z</time>
      </trkpt>
      <trkpt lat="28.244270668238" lon="-13.975332893501">
        <ele>110.2</ele>
        <time>2019-10-25T09:39:37Z</time>
      </trkpt>
      <trkpt lat="28.244330431185" lon="-13.975250583243">
        <ele>111</ele>
        <time>2019-10-25T09:39:40Z</time>
      </trkpt>
      <trkpt lat="28.244408382855" lon="-13.975143211104">
        <ele>112.2</ele>
        <time>2019-10-25T09:39:44Z</time>
      </trkpt>
      <trkpt lat="28.24452531036" lon="-13.974977668579">
        <ele>112.8</ele>
        <time>2019-10-25T09:39:50Z</time>
      </trkpt>
      <trkpt lat="28.244606028057" lon="-13.974869709707">
        <ele>113.4</ele>
        <time>2019-10-25T09:39:54Z</time>
      </trkpt>
      <trkpt lat="28.244681129881" lon="-13.974752530745">
        <ele>114.6</ele>
        <time>2019-10-25T09:39:58Z</time>
      </trkpt>
      <trkpt lat="28.244733935851" lon="-13.974655216886">
        <ele>116</ele>
        <time>2019-10-25T09:40:01Z</time>
      </trkpt>
      <trkpt lat="28.244779701025" lon="-13.974525213617">
        <ele>117.2</ele>
        <time>2019-10-25T09:40:05Z</time>
      </trkpt>
      <trkpt lat="28.244826639665" lon="-13.974292532073">
        <ele>118</ele>
        <time>2019-10-25T09:40:12Z</time>
      </trkpt>
      <trkpt lat="28.244829238054" lon="-13.974253891514">
        <ele>118.4</ele>
        <time>2019-10-25T09:40:13Z</time>
      </trkpt>
      <trkpt lat="28.244812725711" lon="-13.974025820015">
        <ele>118.8</ele>
        <time>2019-10-25T09:40:19Z</time>
      </trkpt>
      <trkpt lat="28.244773666057" lon="-13.973803532027">
        <ele>119</ele>
        <time>2019-10-25T09:40:24Z</time>
      </trkpt>
      <trkpt lat="28.244761512302" lon="-13.973757347758">
        <ele>119</ele>
        <time>2019-10-25T09:40:25Z</time>
      </trkpt>
      <trkpt lat="28.244686159021" lon="-13.973541430014">
        <ele>118.8</ele>
        <time>2019-10-25T09:40:30Z</time>
      </trkpt>
      <trkpt lat="28.244606698609" lon="-13.973314699619">
        <ele>118.6</ele>
        <time>2019-10-25T09:40:35Z</time>
      </trkpt>
      <trkpt lat="28.244517012279" lon="-13.973118311702">
        <ele>117.4</ele>
        <time>2019-10-25T09:40:40Z</time>
      </trkpt>
      <trkpt lat="28.244469822182" lon="-13.973052597606">
        <ele>117.4</ele>
        <time>2019-10-25T09:40:42Z</time>
      </trkpt>
      <trkpt lat="28.244306123675" lon="-13.972909183297">
        <ele>117.4</ele>
        <time>2019-10-25T09:40:47Z</time>
      </trkpt>
      <trkpt lat="28.244128259757" lon="-13.97279996714">
        <ele>117</ele>
        <time>2019-10-25T09:40:52Z</time>
      </trkpt>
      <trkpt lat="28.243955005884" lon="-13.97271614814">
        <ele>118.2</ele>
        <time>2019-10-25T09:40:57Z</time>
      </trkpt>
      <trkpt lat="28.243891973996" lon="-13.972693349372">
        <ele>118.4</ele>
        <time>2019-10-25T09:40:59Z</time>
      </trkpt>
      <trkpt lat="28.243706314911" lon="-13.972637777375">
        <ele>119</ele>
        <time>2019-10-25T09:41:06Z</time>
      </trkpt>
      <trkpt lat="28.243680331021" lon="-13.972628473466">
        <ele>119.4</ele>
        <time>2019-10-25T09:41:07Z</time>
      </trkpt>
      <trkpt lat="28.243572791244" lon="-13.972585306681">
        <ele>121</ele>
        <time>2019-10-25T09:41:11Z</time>
      </trkpt>
      <trkpt lat="28.243394927326" lon="-13.972515233997">
        <ele>121.8</ele>
        <time>2019-10-25T09:41:17Z</time>
      </trkpt>
      <trkpt lat="28.243337343673" lon="-13.972501655319">
        <ele>122.2</ele>
        <time>2019-10-25T09:41:19Z</time>
      </trkpt>
      <trkpt lat="28.243180602143" lon="-13.972464858778">
        <ele>123.2</ele>
        <time>2019-10-25T09:41:24Z</time>
      </trkpt>
      <trkpt lat="28.243041965517" lon="-13.972419847975">
        <ele>124.4</ele>
        <time>2019-10-25T09:41:29Z</time>
      </trkpt>
      <trkpt lat="28.242922607261" lon="-13.972383805805">
        <ele>125.6</ele>
        <time>2019-10-25T09:41:33Z</time>
      </trkpt>
      <trkpt lat="28.242754969261" lon="-13.972314738949">
        <ele>127</ele>
        <time>2019-10-25T09:41:39Z</time>
      </trkpt>
      <trkpt lat="28.24267039589" lon="-13.972269476689">
        <ele>128.4</ele>
        <time>2019-10-25T09:41:42Z</time>
      </trkpt>
      <trkpt lat="28.242594288238" lon="-13.972214994339">
        <ele>129.6</ele>
        <time>2019-10-25T09:41:45Z</time>
      </trkpt>
      <trkpt lat="28.242447521169" lon="-13.972077614998">
        <ele>130</ele>
        <time>2019-10-25T09:41:51Z</time>
      </trkpt>
      <trkpt lat="28.242303771584" lon="-13.971903355297">
        <ele>130.2</ele>
        <time>2019-10-25T09:41:57Z</time>
      </trkpt>
      <trkpt lat="28.242195393617" lon="-13.971731861623">
        <ele>130.8</ele>
        <time>2019-10-25T09:42:02Z</time>
      </trkpt>
      <trkpt lat="28.242099001767" lon="-13.971531953308">
        <ele>130.4</ele>
        <time>2019-10-25T09:42:07Z</time>
      </trkpt>
      <trkpt lat="28.242015853319" lon="-13.971339337246">
        <ele>129.8</ele>
        <time>2019-10-25T09:42:12Z</time>
      </trkpt>
      <trkpt lat="28.241993389827" lon="-13.971257865178">
        <ele>129.6</ele>
        <time>2019-10-25T09:42:14Z</time>
      </trkpt>
      <trkpt lat="28.241949887766" lon="-13.971090813911">
        <ele>128.4</ele>
        <time>2019-10-25T09:42:18Z</time>
      </trkpt>
      <trkpt lat="28.241893142303" lon="-13.97087045376">
        <ele>127.6</ele>
        <time>2019-10-25T09:42:23Z</time>
      </trkpt>
      <trkpt lat="28.241885263317" lon="-13.970823179844">
        <ele>127.2</ele>
        <time>2019-10-25T09:42:24Z</time>
      </trkpt>
      <trkpt lat="28.241812592244" lon="-13.970597287639">
        <ele>126.4</ele>
        <time>2019-10-25T09:42:29Z</time>
      </trkpt>
      <trkpt lat="28.24180286924" lon="-13.970552360655">
        <ele>126.2</ele>
        <time>2019-10-25T09:42:30Z</time>
      </trkpt>
      <trkpt lat="28.241767329984" lon="-13.970342477879">
        <ele>125.2</ele>
        <time>2019-10-25T09:42:34Z</time>
      </trkpt>
      <trkpt lat="28.241751823469" lon="-13.970237201215">
        <ele>124.8</ele>
        <time>2019-10-25T09:42:36Z</time>
      </trkpt>
      <trkpt lat="28.241720056068" lon="-13.97002723462">
        <ele>123.2</ele>
        <time>2019-10-25T09:42:40Z</time>
      </trkpt>
      <trkpt lat="28.241685187364" lon="-13.969877617705">
        <ele>122</ele>
        <time>2019-10-25T09:42:43Z</time>
      </trkpt>
      <trkpt lat="28.241647468814" lon="-13.969728755161">
        <ele>121</ele>
        <time>2019-10-25T09:42:46Z</time>
      </trkpt>
      <trkpt lat="28.241567421669" lon="-13.969496073617">
        <ele>120.2</ele>
        <time>2019-10-25T09:42:51Z</time>
      </trkpt>
      <trkpt lat="28.241511933491" lon="-13.969316030405">
        <ele>120</ele>
        <time>2019-10-25T09:42:55Z</time>
      </trkpt>
      <trkpt lat="28.241504892695" lon="-13.969269091765">
        <ele>119.8</ele>
        <time>2019-10-25T09:42:56Z</time>
      </trkpt>
      <trkpt lat="28.241487039248" lon="-13.969112601692">
        <ele>118.8</ele>
        <time>2019-10-25T09:42:59Z</time>
      </trkpt>
      <trkpt lat="28.241457199684" lon="-13.968915962318">
        <ele>117.4</ele>
        <time>2019-10-25T09:43:03Z</time>
      </trkpt>
      <trkpt lat="28.241401627687" lon="-13.968737595486">
        <ele>116.2</ele>
        <time>2019-10-25T09:43:07Z</time>
      </trkpt>
      <trkpt lat="28.241337170876" lon="-13.968572807332">
        <ele>115</ele>
        <time>2019-10-25T09:43:11Z</time>
      </trkpt>
      <trkpt lat="28.241277240291" lon="-13.96838019127">
        <ele>114.2</ele>
        <time>2019-10-25T09:43:15Z</time>
      </trkpt>
      <trkpt lat="28.241257626645" lon="-13.968331995345">
        <ele>114</ele>
        <time>2019-10-25T09:43:16Z</time>
      </trkpt>
      <trkpt lat="28.241140615321" lon="-13.968123034578">
        <ele>113</ele>
        <time>2019-10-25T09:43:21Z</time>
      </trkpt>
      <trkpt lat="28.241015641192" lon="-13.967934190371">
        <ele>112.4</ele>
        <time>2019-10-25T09:43:26Z</time>
      </trkpt>
      <trkpt lat="28.240884464457" lon="-13.967754985349">
        <ele>111.8</ele>
        <time>2019-10-25T09:43:31Z</time>
      </trkpt>
      <trkpt lat="28.240786228589" lon="-13.967653396721">
        <ele>111.4</ele>
        <time>2019-10-25T09:43:34Z</time>
      </trkpt>
      <trkpt lat="28.240691345481" lon="-13.967575277413">
        <ele>110.8</ele>
        <time>2019-10-25T09:43:37Z</time>
      </trkpt>
      <trkpt lat="28.240514487391" lon="-13.96745315313">
        <ele>110.4</ele>
        <time>2019-10-25T09:43:42Z</time>
      </trkpt>
      <trkpt lat="28.240335450007" lon="-13.967342679688">
        <ele>109.4</ele>
        <time>2019-10-25T09:43:47Z</time>
      </trkpt>
      <trkpt lat="28.240154652424" lon="-13.9672377383">
        <ele>109</ele>
        <time>2019-10-25T09:43:52Z</time>
      </trkpt>
      <trkpt lat="28.240015093789" lon="-13.967159032259">
        <ele>108.6</ele>
        <time>2019-10-25T09:43:56Z</time>
      </trkpt>
      <trkpt lat="28.239981398551" lon="-13.967143106649">
        <ele>108.2</ele>
        <time>2019-10-25T09:43:57Z</time>
      </trkpt>
      <trkpt lat="28.239798673131" lon="-13.967034644863">
        <ele>107.8</ele>
        <time>2019-10-25T09:44:02Z</time>
      </trkpt>
      <trkpt lat="28.239689456974" lon="-13.966971864432">
        <ele>107.2</ele>
        <time>2019-10-25T09:44:05Z</time>
      </trkpt>
      <trkpt lat="28.23949868493" lon="-13.966871197813">
        <ele>107.2</ele>
        <time>2019-10-25T09:44:10Z</time>
      </trkpt>
      <trkpt lat="28.239323670858" lon="-13.966769022452">
        <ele>107.2</ele>
        <time>2019-10-25T09:44:15Z</time>
      </trkpt>
      <trkpt lat="28.239146812768" lon="-13.966659806295">
        <ele>106.6</ele>
        <time>2019-10-25T09:44:20Z</time>
      </trkpt>
      <trkpt lat="28.23901337292" lon="-13.966562324798">
        <ele>106.2</ele>
        <time>2019-10-25T09:44:24Z</time>
      </trkpt>
      <trkpt lat="28.238859229779" lon="-13.966429052588">
        <ele>105.2</ele>
        <time>2019-10-25T09:44:29Z</time>
      </trkpt>
      <trkpt lat="28.238829390215" lon="-13.966406672915">
        <ele>104.8</ele>
        <time>2019-10-25T09:44:30Z</time>
      </trkpt>
      <trkpt lat="28.238679689481" lon="-13.966264432072">
        <ele>104.4</ele>
        <time>2019-10-25T09:44:35Z</time>
      </trkpt>
      <trkpt lat="28.238586818029" lon="-13.966167537308">
        <ele>103.6</ele>
        <time>2019-10-25T09:44:38Z</time>
      </trkpt>
      <trkpt lat="28.238448097584" lon="-13.965989924847">
        <ele>103.4</ele>
        <time>2019-10-25T09:44:43Z</time>
      </trkpt>
      <trkpt lat="28.238317591401" lon="-13.965811558015">
        <ele>102.6</ele>
        <time>2019-10-25T09:44:48Z</time>
      </trkpt>
      <trkpt lat="28.238239136817" lon="-13.965707622455">
        <ele>101.4</ele>
        <time>2019-10-25T09:44:51Z</time>
      </trkpt>
      <trkpt lat="28.238111312842" lon="-13.965537302247">
        <ele>101.4</ele>
        <time>2019-10-25T09:44:56Z</time>
      </trkpt>
      <trkpt lat="28.2379840756" lon="-13.965377291776">
        <ele>100.6</ele>
        <time>2019-10-25T09:45:01Z</time>
      </trkpt>
      <trkpt lat="28.237870668493" lon="-13.965240499168">
        <ele>100.4</ele>
        <time>2019-10-25T09:45:05Z</time>
      </trkpt>
      <trkpt lat="28.237734881713" lon="-13.965073950815">
        <ele>100.4</ele>
        <time>2019-10-25T09:45:10Z</time>
      </trkpt>
      <trkpt lat="28.23759683182" lon="-13.964914527077">
        <ele>99.4</ele>
        <time>2019-10-25T09:45:15Z</time>
      </trkpt>
      <trkpt lat="28.23754486404" lon="-13.964843364746">
        <ele>99.4</ele>
        <time>2019-10-25T09:45:17Z</time>
      </trkpt>
      <trkpt lat="28.237411927106" lon="-13.964661477516">
        <ele>99.2</ele>
        <time>2019-10-25T09:45:22Z</time>
      </trkpt>
      <trkpt lat="28.237287288253" lon="-13.964497192276">
        <ele>99</ele>
        <time>2019-10-25T09:45:27Z</time>
      </trkpt>
      <trkpt lat="28.237163152314" lon="-13.964335253968">
        <ele>98.8</ele>
        <time>2019-10-25T09:45:32Z</time>
      </trkpt>
      <trkpt lat="28.237035328339" lon="-13.964167113054">
        <ele>98.8</ele>
        <time>2019-10-25T09:45:37Z</time>
      </trkpt>
      <trkpt lat="28.236903397233" lon="-13.96399981033">
        <ele>98.6</ele>
        <time>2019-10-25T09:45:42Z</time>
      </trkpt>
      <trkpt lat="28.23677959657" lon="-13.963828484294">
        <ele>98.2</ele>
        <time>2019-10-25T09:45:47Z</time>
      </trkpt>
      <trkpt lat="28.236662585246" lon="-13.963653134946">
        <ele>97.8</ele>
        <time>2019-10-25T09:45:52Z</time>
      </trkpt>
      <trkpt lat="28.236562672998" lon="-13.963451047337">
        <ele>97.4</ele>
        <time>2019-10-25T09:45:57Z</time>
      </trkpt>
      <trkpt lat="28.236542053524" lon="-13.963411149493">
        <ele>97.2</ele>
        <time>2019-10-25T09:45:58Z</time>
      </trkpt>
      <trkpt lat="28.23646108437" lon="-13.963209900074">
        <ele>96.6</ele>
        <time>2019-10-25T09:46:03Z</time>
      </trkpt>
      <trkpt lat="28.236388497116" lon="-13.962999430565">
        <ele>96.2</ele>
        <time>2019-10-25T09:46:08Z</time>
      </trkpt>
      <trkpt lat="28.23631691569" lon="-13.962791810902">
        <ele>96.4</ele>
        <time>2019-10-25T09:46:13Z</time>
      </trkpt>
      <trkpt lat="28.236248267929" lon="-13.962582263402">
        <ele>96.2</ele>
        <time>2019-10-25T09:46:18Z</time>
      </trkpt>
      <trkpt lat="28.236181045091" lon="-13.962367938219">
        <ele>95.4</ele>
        <time>2019-10-25T09:46:23Z</time>
      </trkpt>
      <trkpt lat="28.236169478069" lon="-13.962324436158">
        <ele>94.8</ele>
        <time>2019-10-25T09:46:24Z</time>
      </trkpt>
      <trkpt lat="28.236125473094" lon="-13.962147326611">
        <ele>93.8</ele>
        <time>2019-10-25T09:46:28Z</time>
      </trkpt>
      <trkpt lat="28.236063614672" lon="-13.961929061935">
        <ele>93.4</ele>
        <time>2019-10-25T09:46:33Z</time>
      </trkpt>
      <trkpt lat="28.236004187001" lon="-13.961713395648">
        <ele>92.8</ele>
        <time>2019-10-25T09:46:38Z</time>
      </trkpt>
      <trkpt lat="28.235943418226" lon="-13.961486246158">
        <ele>92.4</ele>
        <time>2019-10-25T09:46:43Z</time>
      </trkpt>
      <trkpt lat="28.235892456274" lon="-13.961303688376">
        <ele>91.6</ele>
        <time>2019-10-25T09:46:47Z</time>
      </trkpt>
      <trkpt lat="28.235847445471" lon="-13.961166895768">
        <ele>90.4</ele>
        <time>2019-10-25T09:46:50Z</time>
      </trkpt>
      <trkpt lat="28.235799417184" lon="-13.9609848409">
        <ele>89.4</ele>
        <time>2019-10-25T09:46:54Z</time>
      </trkpt>
      <trkpt lat="28.235735714744" lon="-13.960745705293">
        <ele>88.2</ele>
        <time>2019-10-25T09:46:59Z</time>
      </trkpt>
      <trkpt lat="28.235694811072" lon="-13.960605308468">
        <ele>86.8</ele>
        <time>2019-10-25T09:47:02Z</time>
      </trkpt>
      <trkpt lat="28.235671090295" lon="-13.960507994609">
        <ele>85.2</ele>
        <time>2019-10-25T09:47:04Z</time>
      </trkpt>
      <trkpt lat="28.235610405339" lon="-13.960283611146">
        <ele>84.6</ele>
        <time>2019-10-25T09:47:09Z</time>
      </trkpt>
      <trkpt lat="28.235600095602" lon="-13.960238516524">
        <ele>84.2</ele>
        <time>2019-10-25T09:47:10Z</time>
      </trkpt>
      <trkpt lat="28.235536644619" lon="-13.960006756989">
        <ele>83.4</ele>
        <time>2019-10-25T09:47:15Z</time>
      </trkpt>
      <trkpt lat="28.235525161416" lon="-13.959961075634">
        <ele>83</ele>
        <time>2019-10-25T09:47:16Z</time>
      </trkpt>
      <trkpt lat="28.235467242487" lon="-13.959734093782">
        <ele>83</ele>
        <time>2019-10-25T09:47:21Z</time>
      </trkpt>
      <trkpt lat="28.235398007993" lon="-13.95952136116">
        <ele>83.6</ele>
        <time>2019-10-25T09:47:26Z</time>
      </trkpt>
      <trkpt lat="28.235363642203" lon="-13.959396722307">
        <ele>84.2</ele>
        <time>2019-10-25T09:47:29Z</time>
      </trkpt>
      <trkpt lat="28.235296167908" lon="-13.959202513684">
        <ele>84.4</ele>
        <time>2019-10-25T09:47:34Z</time>
      </trkpt>
      <trkpt lat="28.235234728581" lon="-13.958998079143">
        <ele>84</ele>
        <time>2019-10-25T09:47:39Z</time>
      </trkpt>
      <trkpt lat="28.235177144928" lon="-13.958783670141">
        <ele>84.2</ele>
        <time>2019-10-25T09:47:44Z</time>
      </trkpt>
      <trkpt lat="28.235112520479" lon="-13.958571356614">
        <ele>84</ele>
        <time>2019-10-25T09:47:49Z</time>
      </trkpt>
      <trkpt lat="28.235053428084" lon="-13.958361054743">
        <ele>83.6</ele>
        <time>2019-10-25T09:47:54Z</time>
      </trkpt>
      <trkpt lat="28.234997688449" lon="-13.95814756775">
        <ele>83.4</ele>
        <time>2019-10-25T09:47:59Z</time>
      </trkpt>
      <trkpt lat="28.234951252723" lon="-13.957924441572">
        <ele>83.2</ele>
        <time>2019-10-25T09:48:04Z</time>
      </trkpt>
      <trkpt lat="28.234929208326" lon="-13.957834168509">
        <ele>82.8</ele>
        <time>2019-10-25T09:48:06Z</time>
      </trkpt>
      <trkpt lat="28.234885706265" lon="-13.957656723686">
        <ele>81.8</ele>
        <time>2019-10-25T09:48:10Z</time>
      </trkpt>
      <trkpt lat="28.234823680205" lon="-13.957438039915">
        <ele>81.2</ele>
        <time>2019-10-25T09:48:15Z</time>
      </trkpt>
      <trkpt lat="28.234784536732" lon="-13.957306444085">
        <ele>80.6</ele>
        <time>2019-10-25T09:48:18Z</time>
      </trkpt>
      <trkpt lat="28.234716056609" lon="-13.957084156097">
        <ele>79.8</ele>
        <time>2019-10-25T09:48:23Z</time>
      </trkpt>
      <trkpt lat="28.234676494041" lon="-13.956947447308">
        <ele>79.6</ele>
        <time>2019-10-25T09:48:26Z</time>
      </trkpt>
      <trkpt lat="28.234613294515" lon="-13.956727003338">
        <ele>78</ele>
        <time>2019-10-25T09:48:31Z</time>
      </trkpt>
      <trkpt lat="28.23456509859" lon="-13.956500943495">
        <ele>77.2</ele>
        <time>2019-10-25T09:48:36Z</time>
      </trkpt>
      <trkpt lat="28.234556213776" lon="-13.956458950176">
        <ele>76.8</ele>
        <time>2019-10-25T09:48:37Z</time>
      </trkpt>
      <trkpt lat="28.234534672293" lon="-13.956369850579">
        <ele>76.4</ele>
        <time>2019-10-25T09:48:39Z</time>
      </trkpt>
      <trkpt lat="28.234485638178" lon="-13.956149406609">
        <ele>76</ele>
        <time>2019-10-25T09:48:44Z</time>
      </trkpt>
      <trkpt lat="28.234476669545" lon="-13.956106407462">
        <ele>75.8</ele>
        <time>2019-10-25T09:48:45Z</time>
      </trkpt>
      <trkpt lat="28.234423193023" lon="-13.955892249917">
        <ele>75.2</ele>
        <time>2019-10-25T09:48:50Z</time>
      </trkpt>
      <trkpt lat="28.23441003344" lon="-13.955850759512">
        <ele>75.2</ele>
        <time>2019-10-25T09:48:51Z</time>
      </trkpt>
      <trkpt lat="28.234347755923" lon="-13.955643391306">
        <ele>75.2</ele>
        <time>2019-10-25T09:48:56Z</time>
      </trkpt>
      <trkpt lat="28.234285310768" lon="-13.955438453851">
        <ele>75.4</ele>
        <time>2019-10-25T09:49:01Z</time>
      </trkpt>
      <trkpt lat="28.234219261396" lon="-13.955228654894">
        <ele>75.4</ele>
        <time>2019-10-25T09:49:06Z</time>
      </trkpt>
      <trkpt lat="28.234151368006" lon="-13.955030925873">
        <ele>75.2</ele>
        <time>2019-10-25T09:49:11Z</time>
      </trkpt>
      <trkpt lat="28.23408984486" lon="-13.954831771929">
        <ele>75</ele>
        <time>2019-10-25T09:49:16Z</time>
      </trkpt>
      <trkpt lat="28.234007534602" lon="-13.954610741226">
        <ele>75.2</ele>
        <time>2019-10-25T09:49:22Z</time>
      </trkpt>
      <trkpt lat="28.233900330101" lon="-13.954418963354">
        <ele>76</ele>
        <time>2019-10-25T09:49:28Z</time>
      </trkpt>
      <trkpt lat="28.233795723989" lon="-13.954285020592">
        <ele>77</ele>
        <time>2019-10-25T09:49:33Z</time>
      </trkpt>
      <trkpt lat="28.233668402928" lon="-13.954134900763">
        <ele>77.8</ele>
        <time>2019-10-25T09:49:39Z</time>
      </trkpt>
      <trkpt lat="28.233611489827" lon="-13.954053177238">
        <ele>78.2</ele>
        <time>2019-10-25T09:49:42Z</time>
      </trkpt>
      <trkpt lat="28.233535046899" lon="-13.9538769897">
        <ele>79.2</ele>
        <time>2019-10-25T09:49:48Z</time>
      </trkpt>
      <trkpt lat="28.233440499067" lon="-13.953672303702">
        <ele>80.2</ele>
        <time>2019-10-25T09:49:55Z</time>
      </trkpt>
      <trkpt lat="28.233328433064" lon="-13.953498044001">
        <ele>81.2</ele>
        <time>2019-10-25T09:50:02Z</time>
      </trkpt>
      <trkpt lat="28.233307226857" lon="-13.953480777287">
        <ele>81.6</ele>
        <time>2019-10-25T09:50:03Z</time>
      </trkpt>
      <trkpt lat="28.233220138916" lon="-13.953425456747">
        <ele>82.8</ele>
        <time>2019-10-25T09:50:07Z</time>
      </trkpt>
      <trkpt lat="28.233156520295" lon="-13.953385977998">
        <ele>83.8</ele>
        <time>2019-10-25T09:50:10Z</time>
      </trkpt>
      <trkpt lat="28.233045376301" lon="-13.953302913369">
        <ele>85.2</ele>
        <time>2019-10-25T09:50:16Z</time>
      </trkpt>
      <trkpt lat="28.233004807905" lon="-13.953224207328">
        <ele>86.6</ele>
        <time>2019-10-25T09:50:19Z</time>
      </trkpt>
      <trkpt lat="28.232950325555" lon="-13.953042739193">
        <ele>87.6</ele>
        <time>2019-10-25T09:50:25Z</time>
      </trkpt>
      <trkpt lat="28.232925096036" lon="-13.952954393967">
        <ele>88.6</ele>
        <time>2019-10-25T09:50:28Z</time>
      </trkpt>
      <trkpt lat="28.232864830175" lon="-13.952783654664">
        <ele>89.8</ele>
        <time>2019-10-25T09:50:34Z</time>
      </trkpt>
      <trkpt lat="28.232807078884" lon="-13.952689190651">
        <ele>91</ele>
        <time>2019-10-25T09:50:38Z</time>
      </trkpt>
      <trkpt lat="28.232732731431" lon="-13.952564551798">
        <ele>92</ele>
        <time>2019-10-25T09:50:43Z</time>
      </trkpt>
      <trkpt lat="28.232672297932" lon="-13.952479559332">
        <ele>93.2</ele>
        <time>2019-10-25T09:50:47Z</time>
      </trkpt>
      <trkpt lat="28.232586215819" lon="-13.952368415338">
        <ele>94.4</ele>
        <time>2019-10-25T09:50:52Z</time>
      </trkpt>
      <trkpt lat="28.232531062917" lon="-13.952321225241">
        <ele>95.4</ele>
        <time>2019-10-25T09:50:55Z</time>
      </trkpt>
      <trkpt lat="28.232437688551" lon="-13.95229532517">
        <ele>96.6</ele>
        <time>2019-10-25T09:50:59Z</time>
      </trkpt>
      <trkpt lat="28.232378093242" lon="-13.952302365966">
        <ele>97.6</ele>
        <time>2019-10-25T09:51:02Z</time>
      </trkpt>
      <trkpt lat="28.232298046097" lon="-13.952330864426">
        <ele>99</ele>
        <time>2019-10-25T09:51:06Z</time>
      </trkpt>
      <trkpt lat="28.232190925415" lon="-13.952378641256">
        <ele>100.2</ele>
        <time>2019-10-25T09:51:11Z</time>
      </trkpt>
      <trkpt lat="28.232109704804" lon="-13.952410911571">
        <ele>101</ele>
        <time>2019-10-25T09:51:15Z</time>
      </trkpt>
      <trkpt lat="28.232087911864" lon="-13.952410743933">
        <ele>101.4</ele>
        <time>2019-10-25T09:51:16Z</time>
      </trkpt>
      <trkpt lat="28.232021527216" lon="-13.952380149998">
        <ele>102.6</ele>
        <time>2019-10-25T09:51:19Z</time>
      </trkpt>
      <trkpt lat="28.231937624397" lon="-13.952245536684">
        <ele>103.6</ele>
        <time>2019-10-25T09:51:25Z</time>
      </trkpt>
      <trkpt lat="28.231916502009" lon="-13.952154006336">
        <ele>104.8</ele>
        <time>2019-10-25T09:51:28Z</time>
      </trkpt>
      <trkpt lat="28.231847099877" lon="-13.95193909442">
        <ele>105.8</ele>
        <time>2019-10-25T09:51:36Z</time>
      </trkpt>
      <trkpt lat="28.231748528733" lon="-13.951810767531">
        <ele>107</ele>
        <time>2019-10-25T09:51:42Z</time>
      </trkpt>
      <trkpt lat="28.231664709733" lon="-13.951762906882">
        <ele>108</ele>
        <time>2019-10-25T09:51:46Z</time>
      </trkpt>
      <trkpt lat="28.23159120047" lon="-13.951718734269">
        <ele>109.2</ele>
        <time>2019-10-25T09:51:50Z</time>
      </trkpt>
      <trkpt lat="28.231517607388" lon="-13.951676238036">
        <ele>110.4</ele>
        <time>2019-10-25T09:51:54Z</time>
      </trkpt>
      <trkpt lat="28.231458682631" lon="-13.95163147869">
        <ele>111.6</ele>
        <time>2019-10-25T09:51:57Z</time>
      </trkpt>
      <trkpt lat="28.231378886943" lon="-13.951585462059">
        <ele>112.6</ele>
        <time>2019-10-25T09:52:01Z</time>
      </trkpt>
      <trkpt lat="28.231314513951" lon="-13.951567189517">
        <ele>114</ele>
        <time>2019-10-25T09:52:04Z</time>
      </trkpt>
      <trkpt lat="28.231230108218" lon="-13.951540032161">
        <ele>114.8</ele>
        <time>2019-10-25T09:52:08Z</time>
      </trkpt>
      <trkpt lat="28.231212170952" lon="-13.951530476795">
        <ele>115.2</ele>
        <time>2019-10-25T09:52:09Z</time>
      </trkpt>
      <trkpt lat="28.231161041362" lon="-13.951486220363">
        <ele>116.2</ele>
        <time>2019-10-25T09:52:12Z</time>
      </trkpt>
      <trkpt lat="28.231116449654" lon="-13.951425954502">
        <ele>117.2</ele>
        <time>2019-10-25T09:52:15Z</time>
      </trkpt>
      <trkpt lat="28.231055094146" lon="-13.951344901529">
        <ele>118.4</ele>
        <time>2019-10-25T09:52:19Z</time>
      </trkpt>
      <trkpt lat="28.230996839941" lon="-13.951280025623">
        <ele>119.6</ele>
        <time>2019-10-25T09:52:23Z</time>
      </trkpt>
      <trkpt lat="28.230909249086" lon="-13.951226549101">
        <ele>120.8</ele>
        <time>2019-10-25T09:52:28Z</time>
      </trkpt>
      <trkpt lat="28.230857951858" lon="-13.951208108921">
        <ele>121.8</ele>
        <time>2019-10-25T09:52:31Z</time>
      </trkpt>
      <trkpt lat="28.230740689077" lon="-13.951193440596">
        <ele>123</ele>
        <time>2019-10-25T09:52:36Z</time>
      </trkpt>
      <trkpt lat="28.230666173986" lon="-13.95119226713">
        <ele>124.4</ele>
        <time>2019-10-25T09:52:39Z</time>
      </trkpt>
      <trkpt lat="28.230578247855" lon="-13.951205259075">
        <ele>125.4</ele>
        <time>2019-10-25T09:52:43Z</time>
      </trkpt>
      <trkpt lat="28.230511527931" lon="-13.951224285988">
        <ele>126.4</ele>
        <time>2019-10-25T09:52:46Z</time>
      </trkpt>
      <trkpt lat="28.230414884624" lon="-13.951278013967">
        <ele>127.6</ele>
        <time>2019-10-25T09:52:51Z</time>
      </trkpt>
      <trkpt lat="28.230358558256" lon="-13.951314978146">
        <ele>128.8</ele>
        <time>2019-10-25T09:52:54Z</time>
      </trkpt>
      <trkpt lat="28.230290916323" lon="-13.95133978857">
        <ele>129.8</ele>
        <time>2019-10-25T09:52:57Z</time>
      </trkpt>
      <trkpt lat="28.230196703767" lon="-13.951382787717">
        <ele>131.2</ele>
        <time>2019-10-25T09:53:01Z</time>
      </trkpt>
      <trkpt lat="28.230107855627" lon="-13.951401563173">
        <ele>132.2</ele>
        <time>2019-10-25T09:53:05Z</time>
      </trkpt>
      <trkpt lat="28.23003551983" lon="-13.951370047229">
        <ele>133.4</ele>
        <time>2019-10-25T09:53:09Z</time>
      </trkpt>
      <trkpt lat="28.229966117698" lon="-13.951300561278">
        <ele>134.4</ele>
        <time>2019-10-25T09:53:13Z</time>
      </trkpt>
      <trkpt lat="28.229919514334" lon="-13.951174916597">
        <ele>135.6</ele>
        <time>2019-10-25T09:53:18Z</time>
      </trkpt>
      <trkpt lat="28.229906187113" lon="-13.951092354882">
        <ele>136.8</ele>
        <time>2019-10-25T09:53:21Z</time>
      </trkpt>
      <trkpt lat="28.229883472164" lon="-13.950985485657">
        <ele>137.8</ele>
        <time>2019-10-25T09:53:25Z</time>
      </trkpt>
      <trkpt lat="28.229844747786" lon="-13.950838886226">
        <ele>139</ele>
        <time>2019-10-25T09:53:31Z</time>
      </trkpt>
      <trkpt lat="28.229820607914" lon="-13.950729250974">
        <ele>140.4</ele>
        <time>2019-10-25T09:53:35Z</time>
      </trkpt>
      <trkpt lat="28.229785487753" lon="-13.950606791415">
        <ele>141.6</ele>
        <time>2019-10-25T09:53:40Z</time>
      </trkpt>
      <trkpt lat="28.22977065179" lon="-13.950540406767">
        <ele>142.8</ele>
        <time>2019-10-25T09:53:43Z</time>
      </trkpt>
      <trkpt lat="28.229756821655" lon="-13.950399004114">
        <ele>143.8</ele>
        <time>2019-10-25T09:53:48Z</time>
      </trkpt>
      <trkpt lat="28.229751205782" lon="-13.950251315036">
        <ele>145</ele>
        <time>2019-10-25T09:53:53Z</time>
      </trkpt>
      <trkpt lat="28.229743578253" lon="-13.95019649741">
        <ele>145.4</ele>
        <time>2019-10-25T09:53:55Z</time>
      </trkpt>
      <trkpt lat="28.229740560769" lon="-13.950140003404">
        <ele>146</ele>
        <time>2019-10-25T09:53:57Z</time>
      </trkpt>
      <trkpt lat="28.229733268516" lon="-13.950056435861">
        <ele>146.8</ele>
        <time>2019-10-25T09:54:00Z</time>
      </trkpt>
      <trkpt lat="28.229736202181" lon="-13.950025087555">
        <ele>147.2</ele>
        <time>2019-10-25T09:54:01Z</time>
      </trkpt>
      <trkpt lat="28.22973796238" lon="-13.949890893336">
        <ele>148.4</ele>
        <time>2019-10-25T09:54:06Z</time>
      </trkpt>
      <trkpt lat="28.229757827483" lon="-13.949787376871">
        <ele>149.6</ele>
        <time>2019-10-25T09:54:10Z</time>
      </trkpt>
      <trkpt lat="28.229805604313" lon="-13.949727278648">
        <ele>151</ele>
        <time>2019-10-25T09:54:13Z</time>
      </trkpt>
      <trkpt lat="28.229895877376" lon="-13.949676568153">
        <ele>152</ele>
        <time>2019-10-25T09:54:17Z</time>
      </trkpt>
      <trkpt lat="28.229974667236" lon="-13.94965837943">
        <ele>153.2</ele>
        <time>2019-10-25T09:54:20Z</time>
      </trkpt>
      <trkpt lat="28.230081704099" lon="-13.949639520155">
        <ele>154.6</ele>
        <time>2019-10-25T09:54:24Z</time>
      </trkpt>
      <trkpt lat="28.230239367638" lon="-13.949603813261">
        <ele>155.6</ele>
        <time>2019-10-25T09:54:29Z</time>
      </trkpt>
      <trkpt lat="28.23036995764" lon="-13.949611524609">
        <ele>156.8</ele>
        <time>2019-10-25T09:54:34Z</time>
      </trkpt>
      <trkpt lat="28.230506079696" lon="-13.949597945931">
        <ele>158</ele>
        <time>2019-10-25T09:54:39Z</time>
      </trkpt>
      <trkpt lat="28.230603896469" lon="-13.949574644249">
        <ele>159.2</ele>
        <time>2019-10-25T09:54:43Z</time>
      </trkpt>
      <trkpt lat="28.230725769295" lon="-13.949541703382">
        <ele>160.2</ele>
        <time>2019-10-25T09:54:48Z</time>
      </trkpt>
      <trkpt lat="28.230788130631" lon="-13.949497949864">
        <ele>161.2</ele>
        <time>2019-10-25T09:54:51Z</time>
      </trkpt>
      <trkpt lat="28.230844792275" lon="-13.949407592982">
        <ele>162.4</ele>
        <time>2019-10-25T09:54:55Z</time>
      </trkpt>
      <trkpt lat="28.230886785594" lon="-13.9493088542">
        <ele>163.6</ele>
        <time>2019-10-25T09:54:59Z</time>
      </trkpt>
      <trkpt lat="28.230936322623" lon="-13.949192764885">
        <ele>165</ele>
        <time>2019-10-25T09:55:03Z</time>
      </trkpt>
      <trkpt lat="28.230946716179" lon="-13.949058151571">
        <ele>166.2</ele>
        <time>2019-10-25T09:55:08Z</time>
      </trkpt>
      <trkpt lat="28.230922743945" lon="-13.948942397532">
        <ele>167.4</ele>
        <time>2019-10-25T09:55:13Z</time>
      </trkpt>
      <trkpt lat="28.230890725087" lon="-13.948846005682">
        <ele>168.6</ele>
        <time>2019-10-25T09:55:17Z</time>
      </trkpt>
      <trkpt lat="28.23084772594" lon="-13.94874223776">
        <ele>169.8</ele>
        <time>2019-10-25T09:55:21Z</time>
      </trkpt>
      <trkpt lat="28.230813946883" lon="-13.948668728497">
        <ele>171.4</ele>
        <time>2019-10-25T09:55:24Z</time>
      </trkpt>
      <trkpt lat="28.230781844206" lon="-13.948596979433">
        <ele>172.4</ele>
        <time>2019-10-25T09:55:27Z</time>
      </trkpt>
      <trkpt lat="28.230715711015" lon="-13.948510226768">
        <ele>173.8</ele>
        <time>2019-10-25T09:55:31Z</time>
      </trkpt>
      <trkpt lat="28.230648152901" lon="-13.948435292582">
        <ele>175</ele>
        <time>2019-10-25T09:55:35Z</time>
      </trkpt>
      <trkpt lat="28.230590066334" lon="-13.948387348114">
        <ele>176.2</ele>
        <time>2019-10-25T09:55:38Z</time>
      </trkpt>
      <trkpt lat="28.230508426628" lon="-13.948328423357">
        <ele>177.4</ele>
        <time>2019-10-25T09:55:42Z</time>
      </trkpt>
      <trkpt lat="28.230343638474" lon="-13.94820831073">
        <ele>178.6</ele>
        <time>2019-10-25T09:55:50Z</time>
      </trkpt>
      <trkpt lat="28.230342045913" lon="-13.948209819472">
        <ele>178.8</ele>
        <time>2019-10-25T09:55:51Z</time>
      </trkpt>
      <trkpt lat="28.230388565458" lon="-13.948212250223">
        <ele>179.2</ele>
        <time>2019-10-25T09:55:54Z</time>
      </trkpt>
      <trkpt lat="28.230589479601" lon="-13.948306798055">
        <ele>177.8</ele>
        <time>2019-10-25T09:56:02Z</time>
      </trkpt>
      <trkpt lat="28.230651673299" lon="-13.948343426958">
        <ele>177.4</ele>
        <time>2019-10-25T09:56:04Z</time>
      </trkpt>
      <trkpt lat="28.230787292441" lon="-13.948484997249">
        <ele>176</ele>
        <time>2019-10-25T09:56:09Z</time>
      </trkpt>
      <trkpt lat="28.230857197487" lon="-13.948591112103">
        <ele>175</ele>
        <time>2019-10-25T09:56:12Z</time>
      </trkpt>
      <trkpt lat="28.230896676236" lon="-13.94866428609">
        <ele>173.8</ele>
        <time>2019-10-25T09:56:14Z</time>
      </trkpt>
      <trkpt lat="28.230926180524" lon="-13.948746344891">
        <ele>172.8</ele>
        <time>2019-10-25T09:56:16Z</time>
      </trkpt>
      <trkpt lat="28.230945207437" lon="-13.948839886895">
        <ele>171.8</ele>
        <time>2019-10-25T09:56:18Z</time>
      </trkpt>
      <trkpt lat="28.23095836702" lon="-13.948921023687">
        <ele>170.6</ele>
        <time>2019-10-25T09:56:20Z</time>
      </trkpt>
      <trkpt lat="28.230949398387" lon="-13.949053457707">
        <ele>169</ele>
        <time>2019-10-25T09:56:23Z</time>
      </trkpt>
      <trkpt lat="28.230915703149" lon="-13.949194441265">
        <ele>167.8</ele>
        <time>2019-10-25T09:56:26Z</time>
      </trkpt>
      <trkpt lat="28.230881085902" lon="-13.949294772608">
        <ele>166.8</ele>
        <time>2019-10-25T09:56:28Z</time>
      </trkpt>
      <trkpt lat="28.230838589669" lon="-13.949385716223">
        <ele>165.4</ele>
        <time>2019-10-25T09:56:30Z</time>
      </trkpt>
      <trkpt lat="28.230753932479" lon="-13.949507337592">
        <ele>164.6</ele>
        <time>2019-10-25T09:56:33Z</time>
      </trkpt>
      <trkpt lat="28.230723087087" lon="-13.949540362278">
        <ele>164.2</ele>
        <time>2019-10-25T09:56:34Z</time>
      </trkpt>
      <trkpt lat="28.230660390475" lon="-13.949605741098">
        <ele>162.8</ele>
        <time>2019-10-25T09:56:36Z</time>
      </trkpt>
      <trkpt lat="28.23059459256" lon="-13.949655278127">
        <ele>161.8</ele>
        <time>2019-10-25T09:56:38Z</time>
      </trkpt>
      <trkpt lat="28.230535500165" lon="-13.949700708025">
        <ele>160.6</ele>
        <time>2019-10-25T09:56:40Z</time>
      </trkpt>
      <trkpt lat="28.230505828239" lon="-13.949718561472">
        <ele>160</ele>
        <time>2019-10-25T09:56:41Z</time>
      </trkpt>
      <trkpt lat="28.230469953707" lon="-13.949720908404">
        <ele>159.4</ele>
        <time>2019-10-25T09:56:42Z</time>
      </trkpt>
      <trkpt lat="28.230346991234" lon="-13.949658295611">
        <ele>158.4</ele>
        <time>2019-10-25T09:56:45Z</time>
      </trkpt>
      <trkpt lat="28.230261076759" lon="-13.949653434109">
        <ele>157.2</ele>
        <time>2019-10-25T09:56:47Z</time>
      </trkpt>
      <trkpt lat="28.230131157309" lon="-13.949665504045">
        <ele>155.8</ele>
        <time>2019-10-25T09:56:50Z</time>
      </trkpt>
      <trkpt lat="28.230012469605" lon="-13.949706407717">
        <ele>154.8</ele>
        <time>2019-10-25T09:56:53Z</time>
      </trkpt>
      <trkpt lat="28.22992823151" lon="-13.949746724656">
        <ele>153.8</ele>
        <time>2019-10-25T09:56:55Z</time>
      </trkpt>
      <trkpt lat="28.229900152145" lon="-13.949781677179">
        <ele>153.4</ele>
        <time>2019-10-25T09:56:56Z</time>
      </trkpt>
      <trkpt lat="28.229855644256" lon="-13.949808834535">
        <ele>152.8</ele>
        <time>2019-10-25T09:56:57Z</time>
      </trkpt>
      <trkpt lat="28.229798982612" lon="-13.949887456757">
        <ele>152</ele>
        <time>2019-10-25T09:56:59Z</time>
      </trkpt>
      <trkpt lat="28.229763191899" lon="-13.949974125603">
        <ele>151</ele>
        <time>2019-10-25T09:57:01Z</time>
      </trkpt>
      <trkpt lat="28.229758162759" lon="-13.950020980424">
        <ele>150.6</ele>
        <time>2019-10-25T09:57:02Z</time>
      </trkpt>
      <trkpt lat="28.229754055628" lon="-13.950175291203">
        <ele>149</ele>
        <time>2019-10-25T09:57:05Z</time>
      </trkpt>
      <trkpt lat="28.229751876334" lon="-13.950225163508">
        <ele>148.2</ele>
        <time>2019-10-25T09:57:06Z</time>
      </trkpt>
      <trkpt lat="28.229749361764" lon="-13.950271515415">
        <ele>147.6</ele>
        <time>2019-10-25T09:57:07Z</time>
      </trkpt>
      <trkpt lat="28.229751876334" lon="-13.950315352752">
        <ele>147.2</ele>
        <time>2019-10-25T09:57:08Z</time>
      </trkpt>
      <trkpt lat="28.229765203555" lon="-13.950452648274">
        <ele>146.2</ele>
        <time>2019-10-25T09:57:11Z</time>
      </trkpt>
      <trkpt lat="28.229770903247" lon="-13.950544513898">
        <ele>144.6</ele>
        <time>2019-10-25T09:57:13Z</time>
      </trkpt>
      <trkpt lat="28.229782973183" lon="-13.950638726454">
        <ele>143.4</ele>
        <time>2019-10-25T09:57:15Z</time>
      </trkpt>
      <trkpt lat="28.229806526322" lon="-13.950765544601">
        <ele>142.4</ele>
        <time>2019-10-25T09:57:18Z</time>
      </trkpt>
      <trkpt lat="28.229824379769" lon="-13.950852381085">
        <ele>141.8</ele>
        <time>2019-10-25T09:57:20Z</time>
      </trkpt>
      <trkpt lat="28.229840892112" lon="-13.950941732139">
        <ele>141.2</ele>
        <time>2019-10-25T09:57:22Z</time>
      </trkpt>
      <trkpt lat="28.229869390572" lon="-13.951092354882">
        <ele>139.8</ele>
        <time>2019-10-25T09:57:25Z</time>
      </trkpt>
      <trkpt lat="28.229891770245" lon="-13.951203331238">
        <ele>138.8</ele>
        <time>2019-10-25T09:57:27Z</time>
      </trkpt>
      <trkpt lat="28.229909120778" lon="-13.951251862439">
        <ele>138.4</ele>
        <time>2019-10-25T09:57:28Z</time>
      </trkpt>
      <trkpt lat="28.229989922294" lon="-13.951399802974">
        <ele>137.4</ele>
        <time>2019-10-25T09:57:31Z</time>
      </trkpt>
      <trkpt lat="28.23003049069" lon="-13.95143534223">
        <ele>137</ele>
        <time>2019-10-25T09:57:32Z</time>
      </trkpt>
      <trkpt lat="28.23007826752" lon="-13.951460990844">
        <ele>136.6</ele>
        <time>2019-10-25T09:57:33Z</time>
      </trkpt>
      <trkpt lat="28.230183795641" lon="-13.95146216431">
        <ele>135.6</ele>
        <time>2019-10-25T09:57:35Z</time>
      </trkpt>
      <trkpt lat="28.230299465861" lon="-13.95139846187">
        <ele>134.8</ele>
        <time>2019-10-25T09:57:37Z</time>
      </trkpt>
      <trkpt lat="28.230351349822" lon="-13.951366191555">
        <ele>134.4</ele>
        <time>2019-10-25T09:57:38Z</time>
      </trkpt>
      <trkpt lat="28.230449920966" lon="-13.95130123183">
        <ele>133.2</ele>
        <time>2019-10-25T09:57:40Z</time>
      </trkpt>
      <trkpt lat="28.230549162662" lon="-13.951245324557">
        <ele>132</ele>
        <time>2019-10-25T09:57:42Z</time>
      </trkpt>
      <trkpt lat="28.23060045989" lon="-13.951223447798">
        <ele>131.2</ele>
        <time>2019-10-25T09:57:43Z</time>
      </trkpt>
      <trkpt lat="28.230652595308" lon="-13.951203498876">
        <ele>130</ele>
        <time>2019-10-25T09:57:44Z</time>
      </trkpt>
      <trkpt lat="28.230703138165" lon="-13.951193692053">
        <ele>128.6</ele>
        <time>2019-10-25T09:57:45Z</time>
      </trkpt>
      <trkpt lat="28.230753764841" lon="-13.951188998189">
        <ele>127.4</ele>
        <time>2019-10-25T09:57:46Z</time>
      </trkpt>
      <trkpt lat="28.230849653777" lon="-13.951193440596">
        <ele>125.8</ele>
        <time>2019-10-25T09:57:48Z</time>
      </trkpt>
      <trkpt lat="28.230930120017" lon="-13.951222106694">
        <ele>125</ele>
        <time>2019-10-25T09:57:50Z</time>
      </trkpt>
      <trkpt lat="28.230965743092" lon="-13.951242223254">
        <ele>124.6</ele>
        <time>2019-10-25T09:57:51Z</time>
      </trkpt>
      <trkpt lat="28.231043527124" lon="-13.951286563505">
        <ele>123.6</ele>
        <time>2019-10-25T09:57:53Z</time>
      </trkpt>
      <trkpt lat="28.231081497131" lon="-13.951313553223">
        <ele>123</ele>
        <time>2019-10-25T09:57:54Z</time>
      </trkpt>
      <trkpt lat="28.231117455482" lon="-13.951340794398">
        <ele>122.6</ele>
        <time>2019-10-25T09:57:55Z</time>
      </trkpt>
      <trkpt lat="28.231151234539" lon="-13.95138002169">
        <ele>121.8</ele>
        <time>2019-10-25T09:57:56Z</time>
      </trkpt>
      <trkpt lat="28.231182331388" lon="-13.951417907878">
        <ele>121.4</ele>
        <time>2019-10-25T09:57:57Z</time>
      </trkpt>
      <trkpt lat="28.231247207294" lon="-13.951495524272">
        <ele>120</ele>
        <time>2019-10-25T09:57:59Z</time>
      </trkpt>
      <trkpt lat="28.231331110113" lon="-13.951544390749">
        <ele>119</ele>
        <time>2019-10-25T09:58:01Z</time>
      </trkpt>
      <trkpt lat="28.231424065384" lon="-13.951566435146">
        <ele>117.6</ele>
        <time>2019-10-25T09:58:03Z</time>
      </trkpt>
      <trkpt lat="28.2315132488" lon="-13.95160214204">
        <ele>116.4</ele>
        <time>2019-10-25T09:58:05Z</time>
      </trkpt>
      <trkpt lat="28.231628164649" lon="-13.951707251066">
        <ele>115</ele>
        <time>2019-10-25T09:58:08Z</time>
      </trkpt>
      <trkpt lat="28.231674684194" lon="-13.951729798377">
        <ele>114.4</ele>
        <time>2019-10-25T09:58:09Z</time>
      </trkpt>
      <trkpt lat="28.231718856807" lon="-13.951754860258">
        <ele>113.6</ele>
        <time>2019-10-25T09:58:10Z</time>
      </trkpt>
      <trkpt lat="28.231801083246" lon="-13.951803726735">
        <ele>112</ele>
        <time>2019-10-25T09:58:12Z</time>
      </trkpt>
      <trkpt lat="28.231877442355" lon="-13.951848234624">
        <ele>110.2</ele>
        <time>2019-10-25T09:58:14Z</time>
      </trkpt>
      <trkpt lat="28.231921112054" lon="-13.951932472719">
        <ele>108.4</ele>
        <time>2019-10-25T09:58:16Z</time>
      </trkpt>
      <trkpt lat="28.23194407846" lon="-13.952018973927">
        <ele>107</ele>
        <time>2019-10-25T09:58:18Z</time>
      </trkpt>
      <trkpt lat="28.231977522241" lon="-13.952175212543">
        <ele>106</ele>
        <time>2019-10-25T09:58:21Z</time>
      </trkpt>
      <trkpt lat="28.23200861909" lon="-13.952267748719">
        <ele>105.4</ele>
        <time>2019-10-25T09:58:23Z</time>
      </trkpt>
      <trkpt lat="28.232064694001" lon="-13.95235567485">
        <ele>104.8</ele>
        <time>2019-10-25T09:58:25Z</time>
      </trkpt>
      <trkpt lat="28.232149351191" lon="-13.952381407283">
        <ele>104</ele>
        <time>2019-10-25T09:58:27Z</time>
      </trkpt>
      <trkpt lat="28.232247670878" lon="-13.952353327918">
        <ele>103.6</ele>
        <time>2019-10-25T09:58:29Z</time>
      </trkpt>
      <trkpt lat="28.232388905893" lon="-13.952303120337">
        <ele>102.4</ele>
        <time>2019-10-25T09:58:32Z</time>
      </trkpt>
      <trkpt lat="28.232483621363" lon="-13.952281662673">
        <ele>101</ele>
        <time>2019-10-25T09:58:34Z</time>
      </trkpt>
      <trkpt lat="28.23253332603" lon="-13.952284009605">
        <ele>100.2</ele>
        <time>2019-10-25T09:58:35Z</time>
      </trkpt>
      <trkpt lat="28.232576576634" lon="-13.952297588283">
        <ele>99.2</ele>
        <time>2019-10-25T09:58:36Z</time>
      </trkpt>
      <trkpt lat="28.232617815582" lon="-13.952320219413">
        <ele>98.8</ele>
        <time>2019-10-25T09:58:37Z</time>
      </trkpt>
      <trkpt lat="28.232687133895" lon="-13.952371768098">
        <ele>97.8</ele>
        <time>2019-10-25T09:58:39Z</time>
      </trkpt>
      <trkpt lat="28.23274454991" lon="-13.952444774447">
        <ele>96.6</ele>
        <time>2019-10-25T09:58:41Z</time>
      </trkpt>
      <trkpt lat="28.232794925129" lon="-13.952536556252">
        <ele>95.4</ele>
        <time>2019-10-25T09:58:43Z</time>
      </trkpt>
      <trkpt lat="28.232818897363" lon="-13.952579639218">
        <ele>94.8</ele>
        <time>2019-10-25T09:58:44Z</time>
      </trkpt>
      <trkpt lat="28.232863153795" lon="-13.952661865657">
        <ele>93.8</ele>
        <time>2019-10-25T09:58:46Z</time>
      </trkpt>
      <trkpt lat="28.232898944508" lon="-13.952755994394">
        <ele>93</ele>
        <time>2019-10-25T09:58:48Z</time>
      </trkpt>
      <trkpt lat="28.232914199566" lon="-13.952806788708">
        <ele>92.6</ele>
        <time>2019-10-25T09:58:49Z</time>
      </trkpt>
      <trkpt lat="28.232942111293" lon="-13.952916340141">
        <ele>91.4</ele>
        <time>2019-10-25T09:58:51Z</time>
      </trkpt>
      <trkpt lat="28.232968933373" lon="-13.953029663429">
        <ele>90.4</ele>
        <time>2019-10-25T09:58:53Z</time>
      </trkpt>
      <trkpt lat="28.23299516872" lon="-13.953141980889">
        <ele>89.4</ele>
        <time>2019-10-25T09:58:55Z</time>
      </trkpt>
      <trkpt lat="28.233022912809" lon="-13.953248850114">
        <ele>88.8</ele>
        <time>2019-10-25T09:58:57Z</time>
      </trkpt>
      <trkpt lat="28.233043364645" lon="-13.953303835378">
        <ele>88.4</ele>
        <time>2019-10-25T09:58:58Z</time>
      </trkpt>
      <trkpt lat="28.233074293856" lon="-13.953350438742">
        <ele>88</ele>
        <time>2019-10-25T09:58:59Z</time>
      </trkpt>
      <trkpt lat="28.233158699589" lon="-13.953413889725">
        <ele>87</ele>
        <time>2019-10-25T09:59:01Z</time>
      </trkpt>
      <trkpt lat="28.233251990136" lon="-13.953464684039">
        <ele>86</ele>
        <time>2019-10-25T09:59:03Z</time>
      </trkpt>
      <trkpt lat="28.233297671491" lon="-13.953491338481">
        <ele>85.4</ele>
        <time>2019-10-25T09:59:04Z</time>
      </trkpt>
      <trkpt lat="28.233383334509" lon="-13.953552526351">
        <ele>84.8</ele>
        <time>2019-10-25T09:59:06Z</time>
      </trkpt>
      <trkpt lat="28.233453993926" lon="-13.953613043669">
        <ele>83.8</ele>
        <time>2019-10-25T09:59:08Z</time>
      </trkpt>
      <trkpt lat="28.233479893997" lon="-13.953647660916">
        <ele>83.4</ele>
        <time>2019-10-25T09:59:09Z</time>
      </trkpt>
      <trkpt lat="28.233525659171" lon="-13.953733407753">
        <ele>82.4</ele>
        <time>2019-10-25T09:59:11Z</time>
      </trkpt>
      <trkpt lat="28.233547452111" lon="-13.953783699153">
        <ele>81.8</ele>
        <time>2019-10-25T09:59:12Z</time>
      </trkpt>
      <trkpt lat="28.233589948344" lon="-13.953879001356">
        <ele>80.4</ele>
        <time>2019-10-25T09:59:14Z</time>
      </trkpt>
      <trkpt lat="28.233626744885" lon="-13.953972627179">
        <ele>79.4</ele>
        <time>2019-10-25T09:59:16Z</time>
      </trkpt>
      <trkpt lat="28.233715844482" lon="-13.954155855513">
        <ele>79.2</ele>
        <time>2019-10-25T09:59:20Z</time>
      </trkpt>
      <trkpt lat="28.233866383406" lon="-13.954321733314">
        <ele>78.6</ele>
        <time>2019-10-25T09:59:25Z</time>
      </trkpt>
      <trkpt lat="28.233898066988" lon="-13.954345957005">
        <ele>78.4</ele>
        <time>2019-10-25T09:59:26Z</time>
      </trkpt>
      <trkpt lat="28.233987418042" lon="-13.954443438502">
        <ele>77.2</ele>
        <time>2019-10-25T09:59:29Z</time>
      </trkpt>
      <trkpt lat="28.234082552607" lon="-13.954588277734">
        <ele>76.4</ele>
        <time>2019-10-25T09:59:33Z</time>
      </trkpt>
      <trkpt lat="28.234114403827" lon="-13.954672096734">
        <ele>76</ele>
        <time>2019-10-25T09:59:35Z</time>
      </trkpt>
      <trkpt lat="28.234167545073" lon="-13.954883152976">
        <ele>75.6</ele>
        <time>2019-10-25T09:59:40Z</time>
      </trkpt>
      <trkpt lat="28.234215070446" lon="-13.955099741272">
        <ele>75.4</ele>
        <time>2019-10-25T09:59:45Z</time>
      </trkpt>
      <trkpt lat="28.2342541301" lon="-13.955244580504">
        <ele>74.8</ele>
        <time>2019-10-25T09:59:49Z</time>
      </trkpt>
      <trkpt lat="28.234322526404" lon="-13.955458570411">
        <ele>74.8</ele>
        <time>2019-10-25T09:59:55Z</time>
      </trkpt>
      <trkpt lat="28.234383714274" lon="-13.955688150652">
        <ele>74.6</ele>
        <time>2019-10-25T10:00:01Z</time>
      </trkpt>
      <trkpt lat="28.234440459737" lon="-13.955913456124">
        <ele>74.8</ele>
        <time>2019-10-25T10:00:07Z</time>
      </trkpt>
      <trkpt lat="28.234504832729" lon="-13.956128954773">
        <ele>75.2</ele>
        <time>2019-10-25T10:00:13Z</time>
      </trkpt>
      <trkpt lat="28.234556968147" lon="-13.956340849205">
        <ele>75.2</ele>
        <time>2019-10-25T10:00:19Z</time>
      </trkpt>
      <trkpt lat="28.234619664759" lon="-13.956541008977">
        <ele>75.8</ele>
        <time>2019-10-25T10:00:25Z</time>
      </trkpt>
      <trkpt lat="28.2346396975" lon="-13.956607058349">
        <ele>76</ele>
        <time>2019-10-25T10:00:27Z</time>
      </trkpt>
      <trkpt lat="28.234696945877" lon="-13.956820293885">
        <ele>76.8</ele>
        <time>2019-10-25T10:00:33Z</time>
      </trkpt>
      <trkpt lat="28.234730473477" lon="-13.956968821153">
        <ele>77.2</ele>
        <time>2019-10-25T10:00:37Z</time>
      </trkpt>
      <trkpt lat="28.234794427374" lon="-13.957167053088">
        <ele>78.4</ele>
        <time>2019-10-25T10:00:43Z</time>
      </trkpt>
      <trkpt lat="28.234844467317" lon="-13.957384060479">
        <ele>79.2</ele>
        <time>2019-10-25T10:00:49Z</time>
      </trkpt>
      <trkpt lat="28.234864835334" lon="-13.957444745435">
        <ele>79.6</ele>
        <time>2019-10-25T10:00:51Z</time>
      </trkpt>
      <trkpt lat="28.234917389847" lon="-13.957648341786">
        <ele>80.6</ele>
        <time>2019-10-25T10:00:57Z</time>
      </trkpt>
      <trkpt lat="28.234934237466" lon="-13.957716989547">
        <ele>80.8</ele>
        <time>2019-10-25T10:00:59Z</time>
      </trkpt>
      <trkpt lat="28.234983690676" lon="-13.9579422112">
        <ele>81.8</ele>
        <time>2019-10-25T10:01:05Z</time>
      </trkpt>
      <trkpt lat="28.235030796954" lon="-13.95814505318">
        <ele>82</ele>
        <time>2019-10-25T10:01:11Z</time>
      </trkpt>
      <trkpt lat="28.235079076698" lon="-13.958315708664">
        <ele>83</ele>
        <time>2019-10-25T10:01:16Z</time>
      </trkpt>
      <trkpt lat="28.235128110813" lon="-13.958518550644">
        <ele>83.4</ele>
        <time>2019-10-25T10:01:22Z</time>
      </trkpt>
      <trkpt lat="28.235194495461" lon="-13.958734133112">
        <ele>83.6</ele>
        <time>2019-10-25T10:01:28Z</time>
      </trkpt>
      <trkpt lat="28.235242188472" lon="-13.958939992576">
        <ele>83.4</ele>
        <time>2019-10-25T10:01:34Z</time>
      </trkpt>
      <trkpt lat="28.23529767665" lon="-13.959160604184">
        <ele>83.4</ele>
        <time>2019-10-25T10:01:40Z</time>
      </trkpt>
      <trkpt lat="28.235362468737" lon="-13.959370989874">
        <ele>83.8</ele>
        <time>2019-10-25T10:01:46Z</time>
      </trkpt>
      <trkpt lat="28.235425416806" lon="-13.959593529319">
        <ele>83.4</ele>
        <time>2019-10-25T10:01:52Z</time>
      </trkpt>
      <trkpt lat="28.235488448694" lon="-13.959822019913">
        <ele>83.2</ele>
        <time>2019-10-25T10:01:58Z</time>
      </trkpt>
      <trkpt lat="28.235549636564" lon="-13.960050929602">
        <ele>83</ele>
        <time>2019-10-25T10:02:04Z</time>
      </trkpt>
      <trkpt lat="28.235612416995" lon="-13.960272211762">
        <ele>83.2</ele>
        <time>2019-10-25T10:02:10Z</time>
      </trkpt>
      <trkpt lat="28.235663462766" lon="-13.960477903588">
        <ele>83.8</ele>
        <time>2019-10-25T10:02:16Z</time>
      </trkpt>
      <trkpt lat="28.235695062529" lon="-13.960570439764">
        <ele>84.4</ele>
        <time>2019-10-25T10:02:19Z</time>
      </trkpt>
      <trkpt lat="28.235752394725" lon="-13.960772024459">
        <ele>85.2</ele>
        <time>2019-10-25T10:02:25Z</time>
      </trkpt>
      <trkpt lat="28.235767314507" lon="-13.960838660564">
        <ele>85.6</ele>
        <time>2019-10-25T10:02:27Z</time>
      </trkpt>
      <trkpt lat="28.235819533744" lon="-13.96102842678">
        <ele>86.8</ele>
        <time>2019-10-25T10:02:33Z</time>
      </trkpt>
      <trkpt lat="28.235858006665" lon="-13.961151975986">
        <ele>87.8</ele>
        <time>2019-10-25T10:02:37Z</time>
      </trkpt>
      <trkpt lat="28.235895892853" lon="-13.961271669518">
        <ele>88.8</ele>
        <time>2019-10-25T10:02:41Z</time>
      </trkpt>
      <trkpt lat="28.235939311095" lon="-13.961439475156">
        <ele>90</ele>
        <time>2019-10-25T10:02:46Z</time>
      </trkpt>
      <trkpt lat="28.23598666883" lon="-13.961649274113">
        <ele>91</ele>
        <time>2019-10-25T10:02:52Z</time>
      </trkpt>
      <trkpt lat="28.236039055705" lon="-13.961854463025">
        <ele>91.6</ele>
        <time>2019-10-25T10:02:58Z</time>
      </trkpt>
      <trkpt lat="28.23605959136" lon="-13.961927134098">
        <ele>92.2</ele>
        <time>2019-10-25T10:03:00Z</time>
      </trkpt>
      <trkpt lat="28.236123796714" lon="-13.96214657224">
        <ele>92.8</ele>
        <time>2019-10-25T10:03:06Z</time>
      </trkpt>
      <trkpt lat="28.236159587427" lon="-13.962280347364">
        <ele>93.2</ele>
        <time>2019-10-25T10:03:10Z</time>
      </trkpt>
      <trkpt lat="28.236216416709" lon="-13.962490481597">
        <ele>93.6</ele>
        <time>2019-10-25T10:03:16Z</time>
      </trkpt>
      <trkpt lat="28.236277939855" lon="-13.962708243359">
        <ele>94.2</ele>
        <time>2019-10-25T10:03:22Z</time>
      </trkpt>
      <trkpt lat="28.236287914316" lon="-13.962741184226">
        <ele>94.4</ele>
        <time>2019-10-25T10:03:23Z</time>
      </trkpt>
      <trkpt lat="28.236353628412" lon="-13.962953665391">
        <ele>95.2</ele>
        <time>2019-10-25T10:03:29Z</time>
      </trkpt>
      <trkpt lat="28.236374499343" lon="-13.963034466907">
        <ele>95.4</ele>
        <time>2019-10-25T10:03:31Z</time>
      </trkpt>
      <trkpt lat="28.236433005005" lon="-13.963228926987">
        <ele>95.4</ele>
        <time>2019-10-25T10:03:36Z</time>
      </trkpt>
      <trkpt lat="28.236506765725" lon="-13.963416681547">
        <ele>95.8</ele>
        <time>2019-10-25T10:03:41Z</time>
      </trkpt>
      <trkpt lat="28.236605588326" lon="-13.96361256655">
        <ele>96</ele>
        <time>2019-10-25T10:03:47Z</time>
      </trkpt>
      <trkpt lat="28.236658813391" lon="-13.963718346128">
        <ele>96.4</ele>
        <time>2019-10-25T10:03:50Z</time>
      </trkpt>
      <trkpt lat="28.236805496641" lon="-13.963877015495">
        <ele>96.8</ele>
        <time>2019-10-25T10:03:57Z</time>
      </trkpt>
      <trkpt lat="28.236873809126" lon="-13.963951698224">
        <ele>98.6</ele>
        <time>2019-10-25T10:04:00Z</time>
      </trkpt>
      <trkpt lat="28.237010517915" lon="-13.964115899645">
        <ele>98.4</ele>
        <time>2019-10-25T10:04:06Z</time>
      </trkpt>
      <trkpt lat="28.237125852859" lon="-13.964283621464">
        <ele>98.2</ele>
        <time>2019-10-25T10:04:11Z</time>
      </trkpt>
      <trkpt lat="28.23725652668" lon="-13.964460228097">
        <ele>98.4</ele>
        <time>2019-10-25T10:04:16Z</time>
      </trkpt>
      <trkpt lat="28.237386865225" lon="-13.964608671546">
        <ele>98.4</ele>
        <time>2019-10-25T10:04:21Z</time>
      </trkpt>
      <trkpt lat="28.23751301282" lon="-13.964790642595">
        <ele>99.6</ele>
        <time>2019-10-25T10:04:26Z</time>
      </trkpt>
      <trkpt lat="28.237634215094" lon="-13.964951910351">
        <ele>100</ele>
        <time>2019-10-25T10:04:31Z</time>
      </trkpt>
      <trkpt lat="28.237763212535" lon="-13.965099180334">
        <ele>99.6</ele>
        <time>2019-10-25T10:04:36Z</time>
      </trkpt>
      <trkpt lat="28.237888354302" lon="-13.96525038981">
        <ele>100</ele>
        <time>2019-10-25T10:04:41Z</time>
      </trkpt>
      <trkpt lat="28.237984829971" lon="-13.965382572373">
        <ele>100.8</ele>
        <time>2019-10-25T10:04:45Z</time>
      </trkpt>
      <trkpt lat="28.238128579556" lon="-13.965558759911">
        <ele>101.2</ele>
        <time>2019-10-25T10:04:51Z</time>
      </trkpt>
      <trkpt lat="28.238243327767" lon="-13.965734360716">
        <ele>101.8</ele>
        <time>2019-10-25T10:04:56Z</time>
      </trkpt>
      <trkpt lat="28.238368218077" lon="-13.965884564364">
        <ele>102.2</ele>
        <time>2019-10-25T10:05:01Z</time>
      </trkpt>
      <trkpt lat="28.238492270197" lon="-13.96605421402">
        <ele>102.2</ele>
        <time>2019-10-25T10:05:06Z</time>
      </trkpt>
      <trkpt lat="28.238615065032" lon="-13.966234843965">
        <ele>102.6</ele>
        <time>2019-10-25T10:05:11Z</time>
      </trkpt>
      <trkpt lat="28.238642473845" lon="-13.966271724325">
        <ele>103</ele>
        <time>2019-10-25T10:05:12Z</time>
      </trkpt>
      <trkpt lat="28.238799131556" lon="-13.966421676516">
        <ele>103.8</ele>
        <time>2019-10-25T10:05:18Z</time>
      </trkpt>
      <trkpt lat="28.238847159843" lon="-13.966467609328">
        <ele>104.2</ele>
        <time>2019-10-25T10:05:20Z</time>
      </trkpt>
      <trkpt lat="28.239002308812" lon="-13.966578334227">
        <ele>105</ele>
        <time>2019-10-25T10:05:26Z</time>
      </trkpt>
      <trkpt lat="28.239086043993" lon="-13.966643126314">
        <ele>105.2</ele>
        <time>2019-10-25T10:05:29Z</time>
      </trkpt>
      <trkpt lat="28.239254184907" lon="-13.966748319159">
        <ele>105.8</ele>
        <time>2019-10-25T10:05:35Z</time>
      </trkpt>
      <trkpt lat="28.239442693838" lon="-13.96686474375">
        <ele>106.4</ele>
        <time>2019-10-25T10:05:42Z</time>
      </trkpt>
      <trkpt lat="28.239616366806" lon="-13.966969685138">
        <ele>106.6</ele>
        <time>2019-10-25T10:05:48Z</time>
      </trkpt>
      <trkpt lat="28.239797332027" lon="-13.967056605441">
        <ele>107.2</ele>
        <time>2019-10-25T10:05:54Z</time>
      </trkpt>
      <trkpt lat="28.239825830487" lon="-13.96707596763">
        <ele>107.4</ele>
        <time>2019-10-25T10:05:55Z</time>
      </trkpt>
      <trkpt lat="28.24000243712" lon="-13.967170850738">
        <ele>108</ele>
        <time>2019-10-25T10:06:01Z</time>
      </trkpt>
      <trkpt lat="28.240175355717" lon="-13.967264057466">
        <ele>108.2</ele>
        <time>2019-10-25T10:06:07Z</time>
      </trkpt>
      <trkpt lat="28.240265964056" lon="-13.96731820454">
        <ele>108.4</ele>
        <time>2019-10-25T10:06:10Z</time>
      </trkpt>
      <trkpt lat="28.240437038635" lon="-13.967419960806">
        <ele>108.8</ele>
        <time>2019-10-25T10:06:16Z</time>
      </trkpt>
      <trkpt lat="28.240578860383" lon="-13.967507300204">
        <ele>109.4</ele>
        <time>2019-10-25T10:06:21Z</time>
      </trkpt>
      <trkpt lat="28.240760747613" lon="-13.967628837754">
        <ele>109.6</ele>
        <time>2019-10-25T10:06:27Z</time>
      </trkpt>
      <trkpt lat="28.240889912692" lon="-13.96775154877">
        <ele>111.8</ele>
        <time>2019-10-25T10:06:32Z</time>
      </trkpt>
      <trkpt lat="28.240911454175" lon="-13.967776778289">
        <ele>113</ele>
        <time>2019-10-25T10:06:33Z</time>
      </trkpt>
      <trkpt lat="28.241034668105" lon="-13.967953049646">
        <ele>113.4</ele>
        <time>2019-10-25T10:06:39Z</time>
      </trkpt>
      <trkpt lat="28.24114908104" lon="-13.968145414251">
        <ele>114</ele>
        <time>2019-10-25T10:06:45Z</time>
      </trkpt>
      <trkpt lat="28.241248406555" lon="-13.9683273853">
        <ele>115</ele>
        <time>2019-10-25T10:06:51Z</time>
      </trkpt>
      <trkpt lat="28.241262739604" lon="-13.968362756918">
        <ele>115.2</ele>
        <time>2019-10-25T10:06:52Z</time>
      </trkpt>
      <trkpt lat="28.241352928848" lon="-13.968570795676">
        <ele>116</ele>
        <time>2019-10-25T10:06:59Z</time>
      </trkpt>
      <trkpt lat="28.241365417879" lon="-13.968605161466">
        <ele>116.4</ele>
        <time>2019-10-25T10:07:00Z</time>
      </trkpt>
      <trkpt lat="28.24142568374" lon="-13.968820324839">
        <ele>117.4</ele>
        <time>2019-10-25T10:07:07Z</time>
      </trkpt>
      <trkpt lat="28.241468850525" lon="-13.969050407994">
        <ele>118.4</ele>
        <time>2019-10-25T10:07:14Z</time>
      </trkpt>
      <trkpt lat="28.241476058959" lon="-13.969084438508">
        <ele>118.6</ele>
        <time>2019-10-25T10:07:15Z</time>
      </trkpt>
      <trkpt lat="28.241519141925" lon="-13.969304044288">
        <ele>119.8</ele>
        <time>2019-10-25T10:07:22Z</time>
      </trkpt>
      <trkpt lat="28.241562476348" lon="-13.969454499393">
        <ele>121</ele>
        <time>2019-10-25T10:07:28Z</time>
      </trkpt>
      <trkpt lat="28.24160673278" lon="-13.969689611688">
        <ele>121.4</ele>
        <time>2019-10-25T10:07:35Z</time>
      </trkpt>
      <trkpt lat="28.241645540977" lon="-13.969850544168">
        <ele>122</ele>
        <time>2019-10-25T10:07:40Z</time>
      </trkpt>
      <trkpt lat="28.241686277011" lon="-13.970036789986">
        <ele>123.2</ele>
        <time>2019-10-25T10:07:46Z</time>
      </trkpt>
      <trkpt lat="28.241722067724" lon="-13.970207696927">
        <ele>124.4</ele>
        <time>2019-10-25T10:07:52Z</time>
      </trkpt>
      <trkpt lat="28.241757523161" lon="-13.970397546962">
        <ele>125.6</ele>
        <time>2019-10-25T10:07:58Z</time>
      </trkpt>
      <trkpt lat="28.241801863412" lon="-13.970603490245">
        <ele>126.6</ele>
        <time>2019-10-25T10:08:05Z</time>
      </trkpt>
      <trkpt lat="28.241807227828" lon="-13.970630899058">
        <ele>126.6</ele>
        <time>2019-10-25T10:08:06Z</time>
      </trkpt>
      <trkpt lat="28.241844108188" lon="-13.970811109908">
        <ele>127.8</ele>
        <time>2019-10-25T10:08:12Z</time>
      </trkpt>
      <trkpt lat="28.24189758471" lon="-13.971013616612">
        <ele>128.8</ele>
        <time>2019-10-25T10:08:18Z</time>
      </trkpt>
      <trkpt lat="28.241944355712" lon="-13.971211429452">
        <ele>129.4</ele>
        <time>2019-10-25T10:08:24Z</time>
      </trkpt>
      <trkpt lat="28.241973440905" lon="-13.97131217989">
        <ele>130</ele>
        <time>2019-10-25T10:08:27Z</time>
      </trkpt>
      <trkpt lat="28.242051057299" lon="-13.971528013815">
        <ele>131.2</ele>
        <time>2019-10-25T10:08:34Z</time>
      </trkpt>
      <trkpt lat="28.242150047538" lon="-13.971708476122">
        <ele>131.4</ele>
        <time>2019-10-25T10:08:40Z</time>
      </trkpt>
      <trkpt lat="28.242253564003" lon="-13.971852141888">
        <ele>132.2</ele>
        <time>2019-10-25T10:08:46Z</time>
      </trkpt>
      <trkpt lat="28.24239044043" lon="-13.972011062712">
        <ele>132.2</ele>
        <time>2019-10-25T10:08:52Z</time>
      </trkpt>
      <trkpt lat="28.242524718468" lon="-13.972157326867">
        <ele>132.2</ele>
        <time>2019-10-25T10:08:58Z</time>
      </trkpt>
      <trkpt lat="28.242705348413" lon="-13.972262854988">
        <ele>131.2</ele>
        <time>2019-10-25T10:09:04Z</time>
      </trkpt>
      <trkpt lat="28.242736696719" lon="-13.97228280391">
        <ele>131</ele>
        <time>2019-10-25T10:09:05Z</time>
      </trkpt>
      <trkpt lat="28.242894695534" lon="-13.972381291235">
        <ele>130</ele>
        <time>2019-10-25T10:09:10Z</time>
      </trkpt>
      <trkpt lat="28.242930318609" lon="-13.972397971216">
        <ele>129.6</ele>
        <time>2019-10-25T10:09:11Z</time>
      </trkpt>
      <trkpt lat="28.243100135903" lon="-13.972465194054">
        <ele>128.6</ele>
        <time>2019-10-25T10:09:15Z</time>
      </trkpt>
      <trkpt lat="28.243302894064" lon="-13.972537781308">
        <ele>127.4</ele>
        <time>2019-10-25T10:09:19Z</time>
      </trkpt>
      <trkpt lat="28.24344153069" lon="-13.97257952317">
        <ele>126.2</ele>
        <time>2019-10-25T10:09:22Z</time>
      </trkpt>
      <trkpt lat="28.243572120692" lon="-13.972622187041">
        <ele>125</ele>
        <time>2019-10-25T10:09:25Z</time>
      </trkpt>
      <trkpt lat="28.243704051798" lon="-13.972669880052">
        <ele>123.8</ele>
        <time>2019-10-25T10:09:28Z</time>
      </trkpt>
      <trkpt lat="28.2438430237" lon="-13.972706425136">
        <ele>122.6</ele>
        <time>2019-10-25T10:09:31Z</time>
      </trkpt>
      <trkpt lat="28.244033125192" lon="-13.97277230687">
        <ele>121.6</ele>
        <time>2019-10-25T10:09:35Z</time>
      </trkpt>
      <trkpt lat="28.244155920027" lon="-13.972820502795">
        <ele>120.4</ele>
        <time>2019-10-25T10:09:38Z</time>
      </trkpt>
      <trkpt lat="28.244290700979" lon="-13.972885294882">
        <ele>119.4</ele>
        <time>2019-10-25T10:09:42Z</time>
      </trkpt>
      <trkpt lat="28.244353062315" lon="-13.972936089196">
        <ele>119.2</ele>
        <time>2019-10-25T10:09:44Z</time>
      </trkpt>
      <trkpt lat="28.244413495814" lon="-13.972981183818">
        <ele>119.2</ele>
        <time>2019-10-25T10:09:46Z</time>
      </trkpt>
      <trkpt lat="28.244472755847" lon="-13.973036001444">
        <ele>119.2</ele>
        <time>2019-10-25T10:09:48Z</time>
      </trkpt>
      <trkpt lat="28.244603345849" lon="-13.973221073796">
        <ele>118.6</ele>
        <time>2019-10-25T10:09:54Z</time>
      </trkpt>
      <trkpt lat="28.244679369682" lon="-13.973422407034">
        <ele>118.6</ele>
        <time>2019-10-25T10:10:00Z</time>
      </trkpt>
      <trkpt lat="28.244736115145" lon="-13.973624662281">
        <ele>119</ele>
        <time>2019-10-25T10:10:05Z</time>
      </trkpt>
      <trkpt lat="28.24478012012" lon="-13.973852817599">
        <ele>119.4</ele>
        <time>2019-10-25T10:10:10Z</time>
      </trkpt>
      <trkpt lat="28.244815240281" lon="-13.974059263796">
        <ele>120.2</ele>
        <time>2019-10-25T10:10:15Z</time>
      </trkpt>
      <trkpt lat="28.244794704626" lon="-13.97427266697">
        <ele>120.2</ele>
        <time>2019-10-25T10:10:20Z</time>
      </trkpt>
      <trkpt lat="28.244750615832" lon="-13.974475760407">
        <ele>120</ele>
        <time>2019-10-25T10:10:25Z</time>
      </trkpt>
      <trkpt lat="28.244665455728" lon="-13.974686146097">
        <ele>119</ele>
        <time>2019-10-25T10:10:30Z</time>
      </trkpt>
      <trkpt lat="28.244570488801" lon="-13.97484934169">
        <ele>117.6</ele>
        <time>2019-10-25T10:10:34Z</time>
      </trkpt>
      <trkpt lat="28.244521287048" lon="-13.974936848726">
        <ele>116.6</ele>
        <time>2019-10-25T10:10:36Z</time>
      </trkpt>
      <trkpt lat="28.244424476103" lon="-13.975053524774">
        <ele>115.6</ele>
        <time>2019-10-25T10:10:39Z</time>
      </trkpt>
      <trkpt lat="28.244287683495" lon="-13.97524161461">
        <ele>114.2</ele>
        <time>2019-10-25T10:10:44Z</time>
      </trkpt>
      <trkpt lat="28.244187938885" lon="-13.975467003901">
        <ele>113.2</ele>
        <time>2019-10-25T10:10:49Z</time>
      </trkpt>
      <trkpt lat="28.24417159418" lon="-13.97551151179">
        <ele>113</ele>
        <time>2019-10-25T10:10:50Z</time>
      </trkpt>
      <trkpt lat="28.244141838435" lon="-13.975657943583">
        <ele>111.4</ele>
        <time>2019-10-25T10:10:53Z</time>
      </trkpt>
      <trkpt lat="28.244131947793" lon="-13.975809236878">
        <ele>110.6</ele>
        <time>2019-10-25T10:10:56Z</time>
      </trkpt>
      <trkpt lat="28.244133791811" lon="-13.975862042848">
        <ele>110.2</ele>
        <time>2019-10-25T10:10:57Z</time>
      </trkpt>
      <trkpt lat="28.244166481221" lon="-13.976075362203">
        <ele>109.2</ele>
        <time>2019-10-25T10:11:01Z</time>
      </trkpt>
      <trkpt lat="28.244198164803" lon="-13.976168988026">
        <ele>109</ele>
        <time>2019-10-25T10:11:03Z</time>
      </trkpt>
      <trkpt lat="28.244267566935" lon="-13.976358838061">
        <ele>107.4</ele>
        <time>2019-10-25T10:11:07Z</time>
      </trkpt>
      <trkpt lat="28.244339315999" lon="-13.976540976748">
        <ele>106</ele>
        <time>2019-10-25T10:11:11Z</time>
      </trkpt>
      <trkpt lat="28.244413747271" lon="-13.976709033843">
        <ele>105</ele>
        <time>2019-10-25T10:11:15Z</time>
      </trkpt>
      <trkpt lat="28.244515754994" lon="-13.976913216927">
        <ele>103.8</ele>
        <time>2019-10-25T10:11:20Z</time>
      </trkpt>
      <trkpt lat="28.244595969777" lon="-13.977082531307">
        <ele>102.4</ele>
        <time>2019-10-25T10:11:24Z</time>
      </trkpt>
      <trkpt lat="28.244696636396" lon="-13.977288809866">
        <ele>101.6</ele>
        <time>2019-10-25T10:11:29Z</time>
      </trkpt>
      <trkpt lat="28.244715914766" lon="-13.977332228108">
        <ele>101.4</ele>
        <time>2019-10-25T10:11:30Z</time>
      </trkpt>
      <trkpt lat="28.24477592917" lon="-13.977449323251">
        <ele>100.4</ele>
        <time>2019-10-25T10:11:33Z</time>
      </trkpt>
      <trkpt lat="28.244834518651" lon="-13.977574967932">
        <ele>99</ele>
        <time>2019-10-25T10:11:36Z</time>
      </trkpt>
      <trkpt lat="28.244910207208" lon="-13.977733134385">
        <ele>98</ele>
        <time>2019-10-25T10:11:40Z</time>
      </trkpt>
      <trkpt lat="28.244945495007" lon="-13.977821479611">
        <ele>97.6</ele>
        <time>2019-10-25T10:11:42Z</time>
      </trkpt>
      <trkpt lat="28.245032331491" lon="-13.97803446369">
        <ele>96.6</ele>
        <time>2019-10-25T10:11:47Z</time>
      </trkpt>
      <trkpt lat="28.245048424739" lon="-13.978082324339">
        <ele>96.4</ele>
        <time>2019-10-25T10:11:48Z</time>
      </trkpt>
      <trkpt lat="28.245127466056" lon="-13.978318526281">
        <ele>95.8</ele>
        <time>2019-10-25T10:11:53Z</time>
      </trkpt>
      <trkpt lat="28.245166860986" lon="-13.978433861225">
        <ele>95.6</ele>
        <time>2019-10-25T10:11:55Z</time>
      </trkpt>
      <trkpt lat="28.245189659754" lon="-13.978526565039">
        <ele>95</ele>
        <time>2019-10-25T10:11:57Z</time>
      </trkpt>
      <trkpt lat="28.24520843521" lon="-13.978631338789">
        <ele>93.8</ele>
        <time>2019-10-25T10:11:59Z</time>
      </trkpt>
      <trkpt lat="28.245231653073" lon="-13.978842059755">
        <ele>92.4</ele>
        <time>2019-10-25T10:12:03Z</time>
      </trkpt>
      <trkpt lat="28.245261492637" lon="-13.979044566459">
        <ele>91.4</ele>
        <time>2019-10-25T10:12:07Z</time>
      </trkpt>
      <trkpt lat="28.245277250609" lon="-13.979094522583">
        <ele>91.4</ele>
        <time>2019-10-25T10:12:08Z</time>
      </trkpt>
      <trkpt lat="28.245315388254" lon="-13.979335753665">
        <ele>90.4</ele>
        <time>2019-10-25T10:12:13Z</time>
      </trkpt>
      <trkpt lat="28.245322345231" lon="-13.979393840232">
        <ele>90.2</ele>
        <time>2019-10-25T10:12:14Z</time>
      </trkpt>
      <trkpt lat="28.245342377972" lon="-13.979633311115">
        <ele>89.6</ele>
        <time>2019-10-25T10:12:19Z</time>
      </trkpt>
      <trkpt lat="28.24535008932" lon="-13.979768930257">
        <ele>89.2</ele>
        <time>2019-10-25T10:12:22Z</time>
      </trkpt>
      <trkpt lat="28.24535092751" lon="-13.979854509456">
        <ele>88.2</ele>
        <time>2019-10-25T10:12:24Z</time>
      </trkpt>
      <trkpt lat="28.245356711021" lon="-13.980032373374">
        <ele>86.8</ele>
        <time>2019-10-25T10:12:28Z</time>
      </trkpt>
      <trkpt lat="28.245371966079" lon="-13.980275532293">
        <ele>86</ele>
        <time>2019-10-25T10:12:33Z</time>
      </trkpt>
      <trkpt lat="28.245375318839" lon="-13.980325739874">
        <ele>85.8</ele>
        <time>2019-10-25T10:12:34Z</time>
      </trkpt>
      <trkpt lat="28.245404990765" lon="-13.980528581854">
        <ele>85</ele>
        <time>2019-10-25T10:12:38Z</time>
      </trkpt>
      <trkpt lat="28.245411612466" lon="-13.980574766123">
        <ele>84.6</ele>
        <time>2019-10-25T10:12:39Z</time>
      </trkpt>
      <trkpt lat="28.245431309931" lon="-13.980728154893">
        <ele>83.4</ele>
        <time>2019-10-25T10:12:42Z</time>
      </trkpt>
      <trkpt lat="28.245446145894" lon="-13.980933343805">
        <ele>82.6</ele>
        <time>2019-10-25T10:12:46Z</time>
      </trkpt>
      <trkpt lat="28.245446816446" lon="-13.980980282445">
        <ele>82.2</ele>
        <time>2019-10-25T10:12:47Z</time>
      </trkpt>
      <trkpt lat="28.245452767595" lon="-13.981196870741">
        <ele>81.4</ele>
        <time>2019-10-25T10:12:52Z</time>
      </trkpt>
      <trkpt lat="28.245455030708" lon="-13.981242468277">
        <ele>81</ele>
        <time>2019-10-25T10:12:53Z</time>
      </trkpt>
      <trkpt lat="28.245477158924" lon="-13.981486381567">
        <ele>80</ele>
        <time>2019-10-25T10:12:58Z</time>
      </trkpt>
      <trkpt lat="28.245478751485" lon="-13.98152552504">
        <ele>79.8</ele>
        <time>2019-10-25T10:12:59Z</time>
      </trkpt>
      <trkpt lat="28.24545989221" lon="-13.981774132194">
        <ele>78.6</ele>
        <time>2019-10-25T10:13:04Z</time>
      </trkpt>
      <trkpt lat="28.245403482023" lon="-13.981997761286">
        <ele>78</ele>
        <time>2019-10-25T10:13:09Z</time>
      </trkpt>
      <trkpt lat="28.245370122061" lon="-13.9820737013">
        <ele>77.6</ele>
        <time>2019-10-25T10:13:11Z</time>
      </trkpt>
      <trkpt lat="28.245331481502" lon="-13.982203536931">
        <ele>77.2</ele>
        <time>2019-10-25T10:13:14Z</time>
      </trkpt>
      <trkpt lat="28.245239280602" lon="-13.982427668937">
        <ele>77</ele>
        <time>2019-10-25T10:13:19Z</time>
      </trkpt>
      <trkpt lat="28.245129226255" lon="-13.982629672727">
        <ele>76.8</ele>
        <time>2019-10-25T10:13:24Z</time>
      </trkpt>
      <trkpt lat="28.245108020048" lon="-13.982671079313">
        <ele>76.6</ele>
        <time>2019-10-25T10:13:25Z</time>
      </trkpt>
      <trkpt lat="28.245055716992" lon="-13.982753138114">
        <ele>76.4</ele>
        <time>2019-10-25T10:13:27Z</time>
      </trkpt>
      <trkpt lat="28.24494775812" lon="-13.982910801653">
        <ele>76</ele>
        <time>2019-10-25T10:13:31Z</time>
      </trkpt>
      <trkpt lat="28.244799482309" lon="-13.983100148774">
        <ele>75.6</ele>
        <time>2019-10-25T10:13:36Z</time>
      </trkpt>
      <trkpt lat="28.244768972193" lon="-13.983139795161">
        <ele>75.6</ele>
        <time>2019-10-25T10:13:37Z</time>
      </trkpt>
      <trkpt lat="28.244615248147" lon="-13.98332428078">
        <ele>75</ele>
        <time>2019-10-25T10:13:42Z</time>
      </trkpt>
      <trkpt lat="28.244560179064" lon="-13.983393599093">
        <ele>74.4</ele>
        <time>2019-10-25T10:13:44Z</time>
      </trkpt>
      <trkpt lat="28.244413998728" lon="-13.983564254577">
        <ele>74</ele>
        <time>2019-10-25T10:13:49Z</time>
      </trkpt>
      <trkpt lat="28.244293299368" lon="-13.983711608379">
        <ele>73.4</ele>
        <time>2019-10-25T10:13:53Z</time>
      </trkpt>
      <trkpt lat="28.244132115431" lon="-13.983882766777">
        <ele>72</ele>
        <time>2019-10-25T10:13:58Z</time>
      </trkpt>
      <trkpt lat="28.243966321449" lon="-13.984046632922">
        <ele>71.4</ele>
        <time>2019-10-25T10:14:03Z</time>
      </trkpt>
      <trkpt lat="28.24384553827" lon="-13.984192729439">
        <ele>72</ele>
        <time>2019-10-25T10:14:07Z</time>
      </trkpt>
      <trkpt lat="28.243727772575" lon="-13.98433597611">
        <ele>70.6</ele>
        <time>2019-10-25T10:14:11Z</time>
      </trkpt>
      <trkpt lat="28.243639678806" lon="-13.984440582222">
        <ele>69.6</ele>
        <time>2019-10-25T10:14:14Z</time>
      </trkpt>
      <trkpt lat="28.243477740498" lon="-13.984604029272">
        <ele>69.2</ele>
        <time>2019-10-25T10:14:19Z</time>
      </trkpt>
      <trkpt lat="28.243312030335" lon="-13.984762866277">
        <ele>68.8</ele>
        <time>2019-10-25T10:14:24Z</time>
      </trkpt>
      <trkpt lat="28.243273389776" lon="-13.984788850167">
        <ele>68.6</ele>
        <time>2019-10-25T10:14:25Z</time>
      </trkpt>
      <trkpt lat="28.243075157841" lon="-13.984902089636">
        <ele>67.6</ele>
        <time>2019-10-25T10:14:30Z</time>
      </trkpt>
      <trkpt lat="28.242995781248" lon="-13.984934108494">
        <ele>67.2</ele>
        <time>2019-10-25T10:14:32Z</time>
      </trkpt>
      <trkpt lat="28.242914141542" lon="-13.98495623671">
        <ele>67.2</ele>
        <time>2019-10-25T10:14:34Z</time>
      </trkpt>
      <trkpt lat="28.242709120268" lon="-13.98496210404">
        <ele>67.4</ele>
        <time>2019-10-25T10:14:39Z</time>
      </trkpt>
      <trkpt lat="28.242509044315" lon="-13.984943831498">
        <ele>67</ele>
        <time>2019-10-25T10:14:44Z</time>
      </trkpt>
      <trkpt lat="28.242323049954" lon="-13.984923212024">
        <ele>67</ele>
        <time>2019-10-25T10:14:49Z</time>
      </trkpt>
      <trkpt lat="28.242135546851" lon="-13.9848900197">
        <ele>67.2</ele>
        <time>2019-10-25T10:14:54Z</time>
      </trkpt>
      <trkpt lat="28.2420241514" lon="-13.984877949764">
        <ele>67.2</ele>
        <time>2019-10-25T10:14:57Z</time>
      </trkpt>
      <trkpt lat="28.241825668008" lon="-13.984841656137">
        <ele>67</ele>
        <time>2019-10-25T10:15:02Z</time>
      </trkpt>
      <trkpt lat="28.24163355486" lon="-13.984806787433">
        <ele>67.4</ele>
        <time>2019-10-25T10:15:07Z</time>
      </trkpt>
      <trkpt lat="28.241436244934" lon="-13.984777115507">
        <ele>67.2</ele>
        <time>2019-10-25T10:15:12Z</time>
      </trkpt>
      <trkpt lat="28.241256285541" lon="-13.984762279544">
        <ele>67.4</ele>
        <time>2019-10-25T10:15:17Z</time>
      </trkpt>
      <trkpt lat="28.241041960358" lon="-13.984723052252">
        <ele>66.6</ele>
        <time>2019-10-25T10:15:23Z</time>
      </trkpt>
      <trkpt lat="28.240998458297" lon="-13.984719196578">
        <ele>66.4</ele>
        <time>2019-10-25T10:15:24Z</time>
      </trkpt>
      <trkpt lat="28.240806596606" lon="-13.984696481629">
        <ele>65.6</ele>
        <time>2019-10-25T10:15:28Z</time>
      </trkpt>
      <trkpt lat="28.240758065405" lon="-13.98469220686">
        <ele>65.2</ele>
        <time>2019-10-25T10:15:29Z</time>
      </trkpt>
      <trkpt lat="28.240579698573" lon="-13.984684327874">
        <ele>64.2</ele>
        <time>2019-10-25T10:15:33Z</time>
      </trkpt>
      <trkpt lat="28.240441816318" lon="-13.984669156635">
        <ele>63</ele>
        <time>2019-10-25T10:15:36Z</time>
      </trkpt>
      <trkpt lat="28.240267137522" lon="-13.984647698971">
        <ele>61.6</ele>
        <time>2019-10-25T10:15:40Z</time>
      </trkpt>
      <trkpt lat="28.240131686018" lon="-13.984628839696">
        <ele>60.6</ele>
        <time>2019-10-25T10:15:43Z</time>
      </trkpt>
      <trkpt lat="28.239942003621" lon="-13.984593216621">
        <ele>59.4</ele>
        <time>2019-10-25T10:15:47Z</time>
      </trkpt>
      <trkpt lat="28.239848964531" lon="-13.984581146685">
        <ele>58.2</ele>
        <time>2019-10-25T10:15:49Z</time>
      </trkpt>
      <trkpt lat="28.239708986801" lon="-13.984573519156">
        <ele>57.2</ele>
        <time>2019-10-25T10:15:52Z</time>
      </trkpt>
      <trkpt lat="28.239572529469" lon="-13.98457318388">
        <ele>56</ele>
        <time>2019-10-25T10:15:55Z</time>
      </trkpt>
      <trkpt lat="28.239393324447" lon="-13.984588858033">
        <ele>54.8</ele>
        <time>2019-10-25T10:15:59Z</time>
      </trkpt>
      <trkpt lat="28.239179250721" lon="-13.984640741994">
        <ele>53.8</ele>
        <time>2019-10-25T10:16:04Z</time>
      </trkpt>
      <trkpt lat="28.238995100378" lon="-13.984708300108">
        <ele>52.8</ele>
        <time>2019-10-25T10:16:08Z</time>
      </trkpt>
      <trkpt lat="28.238948664652" lon="-13.984725650641">
        <ele>52.4</ele>
        <time>2019-10-25T10:16:09Z</time>
      </trkpt>
      <trkpt lat="28.238777338616" lon="-13.984813912048">
        <ele>51.8</ele>
        <time>2019-10-25T10:16:13Z</time>
      </trkpt>
      <trkpt lat="28.238647838261" lon="-13.984883984732">
        <ele>51.2</ele>
        <time>2019-10-25T10:16:16Z</time>
      </trkpt>
      <trkpt lat="28.238567539659" lon="-13.984928660259">
        <ele>50</ele>
        <time>2019-10-25T10:16:18Z</time>
      </trkpt>
      <trkpt lat="28.238391100664" lon="-13.98499982259">
        <ele>49.4</ele>
        <time>2019-10-25T10:16:22Z</time>
      </trkpt>
      <trkpt lat="28.23822463613" lon="-13.985079283002">
        <ele>49</ele>
        <time>2019-10-25T10:16:26Z</time>
      </trkpt>
      <trkpt lat="28.238138973112" lon="-13.985120773407">
        <ele>48.8</ele>
        <time>2019-10-25T10:16:28Z</time>
      </trkpt>
      <trkpt lat="28.238098488535" lon="-13.985146589659">
        <ele>48.8</ele>
        <time>2019-10-25T10:16:29Z</time>
      </trkpt>
      <trkpt lat="28.237935963494" lon="-13.985239209654">
        <ele>47.6</ele>
        <time>2019-10-25T10:16:33Z</time>
      </trkpt>
      <trkpt lat="28.237813252478" lon="-13.985296206574">
        <ele>46.6</ele>
        <time>2019-10-25T10:16:36Z</time>
      </trkpt>
      <trkpt lat="28.237653074369" lon="-13.985376002262">
        <ele>45.4</ele>
        <time>2019-10-25T10:16:40Z</time>
      </trkpt>
      <trkpt lat="28.23745769228" lon="-13.985478848175">
        <ele>44.4</ele>
        <time>2019-10-25T10:16:45Z</time>
      </trkpt>
      <trkpt lat="28.237413771124" lon="-13.985500138201">
        <ele>44.2</ele>
        <time>2019-10-25T10:16:46Z</time>
      </trkpt>
      <trkpt lat="28.237245462572" lon="-13.985578006052">
        <ele>43.6</ele>
        <time>2019-10-25T10:16:50Z</time>
      </trkpt>
      <trkpt lat="28.237165750703" lon="-13.985616478973">
        <ele>43</ele>
        <time>2019-10-25T10:16:52Z</time>
      </trkpt>
      <trkpt lat="28.236978582876" lon="-13.985719408705">
        <ele>42</ele>
        <time>2019-10-25T10:16:57Z</time>
      </trkpt>
      <trkpt lat="28.236941534878" lon="-13.985738938532">
        <ele>41.4</ele>
        <time>2019-10-25T10:16:58Z</time>
      </trkpt>
      <trkpt lat="28.236790744497" lon="-13.985822757532">
        <ele>40.4</ele>
        <time>2019-10-25T10:17:02Z</time>
      </trkpt>
      <trkpt lat="28.236593434571" lon="-13.985928788567">
        <ele>40.4</ele>
        <time>2019-10-25T10:17:07Z</time>
      </trkpt>
      <trkpt lat="28.236480949473" lon="-13.985996681957">
        <ele>39.2</ele>
        <time>2019-10-25T10:17:10Z</time>
      </trkpt>
      <trkpt lat="28.236293194913" lon="-13.986105059924">
        <ele>38.2</ele>
        <time>2019-10-25T10:17:15Z</time>
      </trkpt>
      <trkpt lat="28.236248267929" lon="-13.986124086837">
        <ele>38</ele>
        <time>2019-10-25T10:17:16Z</time>
      </trkpt>
      <trkpt lat="28.236048108157" lon="-13.986228357673">
        <ele>37.4</ele>
        <time>2019-10-25T10:17:21Z</time>
      </trkpt>
      <trkpt lat="28.235891869541" lon="-13.986309997379">
        <ele>37</ele>
        <time>2019-10-25T10:17:25Z</time>
      </trkpt>
      <trkpt lat="28.235693386149" lon="-13.986400605718">
        <ele>36</ele>
        <time>2019-10-25T10:17:30Z</time>
      </trkpt>
      <trkpt lat="28.235650638459" lon="-13.986412843292">
        <ele>35.8</ele>
        <time>2019-10-25T10:17:31Z</time>
      </trkpt>
      <trkpt lat="28.235467493944" lon="-13.986453160231">
        <ele>35</ele>
        <time>2019-10-25T10:17:35Z</time>
      </trkpt>
      <trkpt lat="28.235423740426" lon="-13.986463805244">
        <ele>34.8</ele>
        <time>2019-10-25T10:17:36Z</time>
      </trkpt>
      <trkpt lat="28.23520296118" lon="-13.986498422491">
        <ele>33.8</ele>
        <time>2019-10-25T10:17:41Z</time>
      </trkpt>
      <trkpt lat="28.234986205246" lon="-13.986522394725">
        <ele>32.8</ele>
        <time>2019-10-25T10:17:46Z</time>
      </trkpt>
      <trkpt lat="28.234814208658" lon="-13.986540918724">
        <ele>31.6</ele>
        <time>2019-10-25T10:17:50Z</time>
      </trkpt>
      <trkpt lat="28.234596782172" lon="-13.986553659212">
        <ele>30.6</ele>
        <time>2019-10-25T10:17:55Z</time>
      </trkpt>
      <trkpt lat="28.234556297595" lon="-13.986559275085">
        <ele>30.6</ele>
        <time>2019-10-25T10:17:56Z</time>
      </trkpt>
      <trkpt lat="28.23434381643" lon="-13.986582157672">
        <ele>29.6</ele>
        <time>2019-10-25T10:18:01Z</time>
      </trkpt>
      <trkpt lat="28.234302493663" lon="-13.98658651626">
        <ele>29.4</ele>
        <time>2019-10-25T10:18:02Z</time>
      </trkpt>
      <trkpt lat="28.234092946163" lon="-13.986604704983">
        <ele>28.6</ele>
        <time>2019-10-25T10:18:07Z</time>
      </trkpt>
      <trkpt lat="28.234011138819" lon="-13.986612919245">
        <ele>28.2</ele>
        <time>2019-10-25T10:18:09Z</time>
      </trkpt>
      <trkpt lat="28.233804441165" lon="-13.986628844855">
        <ele>27.6</ele>
        <time>2019-10-25T10:18:14Z</time>
      </trkpt>
      <trkpt lat="28.233716766491" lon="-13.986633371081">
        <ele>27.2</ele>
        <time>2019-10-25T10:18:16Z</time>
      </trkpt>
      <trkpt lat="28.233513673054" lon="-13.986654661107">
        <ele>26.2</ele>
        <time>2019-10-25T10:18:21Z</time>
      </trkpt>
      <trkpt lat="28.233428010036" lon="-13.98665776241">
        <ele>26</ele>
        <time>2019-10-25T10:18:23Z</time>
      </trkpt>
      <trkpt lat="28.233215361233" lon="-13.986671424907">
        <ele>25</ele>
        <time>2019-10-25T10:18:28Z</time>
      </trkpt>
      <trkpt lat="28.233172781181" lon="-13.986673604201">
        <ele>24.8</ele>
        <time>2019-10-25T10:18:29Z</time>
      </trkpt>
      <trkpt lat="28.232962563129" lon="-13.986690200363">
        <ele>24.2</ele>
        <time>2019-10-25T10:18:34Z</time>
      </trkpt>
      <trkpt lat="28.232838343371" lon="-13.98670637743">
        <ele>23.4</ele>
        <time>2019-10-25T10:18:37Z</time>
      </trkpt>
      <trkpt lat="28.232635249934" lon="-13.986724901429">
        <ele>23.2</ele>
        <time>2019-10-25T10:18:42Z</time>
      </trkpt>
      <trkpt lat="28.232440706035" lon="-13.986747951654">
        <ele>23</ele>
        <time>2019-10-25T10:18:47Z</time>
      </trkpt>
      <trkpt lat="28.232261836289" lon="-13.986799081244">
        <ele>23.4</ele>
        <time>2019-10-25T10:18:52Z</time>
      </trkpt>
      <trkpt lat="28.232177598194" lon="-13.986866890815">
        <ele>24</ele>
        <time>2019-10-25T10:18:55Z</time>
      </trkpt>
      <trkpt lat="28.232138454721" lon="-13.986930006522">
        <ele>24.2</ele>
        <time>2019-10-25T10:18:57Z</time>
      </trkpt>
      <trkpt lat="28.232066035105" lon="-13.987139302565">
        <ele>24</ele>
        <time>2019-10-25T10:19:02Z</time>
      </trkpt>
      <trkpt lat="28.232027981279" lon="-13.987348850065">
        <ele>23.8</ele>
        <time>2019-10-25T10:19:07Z</time>
      </trkpt>
      <trkpt lat="28.232008283814" lon="-13.987566611827">
        <ele>23.6</ele>
        <time>2019-10-25T10:19:12Z</time>
      </trkpt>
      <trkpt lat="28.231988334892" lon="-13.987787726349">
        <ele>23.4</ele>
        <time>2019-10-25T10:19:18Z</time>
      </trkpt>
      <trkpt lat="28.231951873627" lon="-13.98799048451">
        <ele>23.6</ele>
        <time>2019-10-25T10:19:23Z</time>
      </trkpt>
      <trkpt lat="28.231897307458" lon="-13.988208833005">
        <ele>23.2</ele>
        <time>2019-10-25T10:19:28Z</time>
      </trkpt>
      <trkpt lat="28.231850368818" lon="-13.988440257264">
        <ele>23</ele>
        <time>2019-10-25T10:19:33Z</time>
      </trkpt>
      <trkpt lat="28.231797898124" lon="-13.988656175008">
        <ele>22.6</ele>
        <time>2019-10-25T10:19:38Z</time>
      </trkpt>
      <trkpt lat="28.231760263393" lon="-13.988827920139">
        <ele>22.4</ele>
        <time>2019-10-25T10:19:42Z</time>
      </trkpt>
      <trkpt lat="28.231712235106" lon="-13.98904073658">
        <ele>21.6</ele>
        <time>2019-10-25T10:19:47Z</time>
      </trkpt>
      <trkpt lat="28.231670241787" lon="-13.989212146435">
        <ele>21.4</ele>
        <time>2019-10-25T10:19:51Z</time>
      </trkpt>
      <trkpt lat="28.231600336741" lon="-13.989422196849">
        <ele>21</ele>
        <time>2019-10-25T10:19:56Z</time>
      </trkpt>
      <trkpt lat="28.231572257376" lon="-13.989504171831">
        <ele>20.4</ele>
        <time>2019-10-25T10:19:58Z</time>
      </trkpt>
      <trkpt lat="28.23148055939" lon="-13.989697374626">
        <ele>19.4</ele>
        <time>2019-10-25T10:20:03Z</time>
      </trkpt>
      <trkpt lat="28.231447618523" lon="-13.989775996848">
        <ele>19.2</ele>
        <time>2019-10-25T10:20:05Z</time>
      </trkpt>
      <trkpt lat="28.231352651596" lon="-13.989970792204">
        <ele>18.6</ele>
        <time>2019-10-25T10:20:10Z</time>
      </trkpt>
      <trkpt lat="28.231293307744" lon="-13.99009266503">
        <ele>18.2</ele>
        <time>2019-10-25T10:20:13Z</time>
      </trkpt>
      <trkpt lat="28.231204040509" lon="-13.990286957472">
        <ele>17.2</ele>
        <time>2019-10-25T10:20:18Z</time>
      </trkpt>
      <trkpt lat="28.231194149867" lon="-13.990327777325">
        <ele>17</ele>
        <time>2019-10-25T10:20:19Z</time>
      </trkpt>
      <trkpt lat="28.231087783556" lon="-13.990520477206">
        <ele>16.8</ele>
        <time>2019-10-25T10:20:25Z</time>
      </trkpt>
      <trkpt lat="28.230930622931" lon="-13.99056708057">
        <ele>16</ele>
        <time>2019-10-25T10:20:30Z</time>
      </trkpt>
      <trkpt lat="28.230721494526" lon="-13.990482842475">
        <ele>15.6</ele>
        <time>2019-10-25T10:20:35Z</time>
      </trkpt>
      <trkpt lat="28.230647230892" lon="-13.990395335439">
        <ele>15</ele>
        <time>2019-10-25T10:20:38Z</time>
      </trkpt>
      <trkpt lat="28.230693918075" lon="-13.990181848446">
        <ele>14.6</ele>
        <time>2019-10-25T10:20:43Z</time>
      </trkpt>
      <trkpt lat="28.230767678795" lon="-13.989958806087">
        <ele>15.2</ele>
        <time>2019-10-25T10:20:48Z</time>
      </trkpt>
      <trkpt lat="28.230792908314" lon="-13.989737775384">
        <ele>14.6</ele>
        <time>2019-10-25T10:20:53Z</time>
      </trkpt>
      <trkpt lat="28.230817634919" lon="-13.989519426889">
        <ele>15.4</ele>
        <time>2019-10-25T10:20:58Z</time>
      </trkpt>
      <trkpt lat="28.230837751479" lon="-13.989315830538">
        <ele>15.2</ele>
        <time>2019-10-25T10:21:03Z</time>
      </trkpt>
      <trkpt lat="28.230673885334" lon="-13.989188509477">
        <ele>15.4</ele>
        <time>2019-10-25T10:21:08Z</time>
      </trkpt>
      <trkpt lat="28.230466852404" lon="-13.989099242242">
        <ele>14.2</ele>
        <time>2019-10-25T10:21:13Z</time>
      </trkpt>
      <trkpt lat="28.230424691447" lon="-13.989081472614">
        <ele>13.8</ele>
        <time>2019-10-25T10:21:14Z</time>
      </trkpt>
      <trkpt lat="28.230299717318" lon="-13.989026654988">
        <ele>12.6</ele>
        <time>2019-10-25T10:21:17Z</time>
      </trkpt>
      <trkpt lat="28.230139790666" lon="-13.988951553164">
        <ele>11.4</ele>
        <time>2019-10-25T10:21:21Z</time>
      </trkpt>
      <trkpt lat="28.23006904743" lon="-13.988930682233">
        <ele>10.8</ele>
        <time>2019-10-25T10:21:23Z</time>
      </trkpt>
      <trkpt lat="28.230043650273" lon="-13.988954235372">
        <ele>10.2</ele>
        <time>2019-10-25T10:21:24Z</time>
      </trkpt>
      <trkpt lat="28.22995086264" lon="-13.989182809785">
        <ele>9.4</ele>
        <time>2019-10-25T10:21:29Z</time>
      </trkpt>
      <trkpt lat="28.229930578442" lon="-13.989228910235">
        <ele>9.2</ele>
        <time>2019-10-25T10:21:30Z</time>
      </trkpt>
      <trkpt lat="28.229908450226" lon="-13.989256821962">
        <ele>9.2</ele>
        <time>2019-10-25T10:21:31Z</time>
      </trkpt>
      <trkpt lat="28.229875509359" lon="-13.989266042052">
        <ele>8.8</ele>
        <time>2019-10-25T10:21:32Z</time>
      </trkpt>
      <trkpt lat="28.229784817201" lon="-13.989227066217">
        <ele>8.8</ele>
        <time>2019-10-25T10:21:34Z</time>
      </trkpt>
      <trkpt lat="28.229606869464" lon="-13.989151293841">
        <ele>8.6</ele>
        <time>2019-10-25T10:21:38Z</time>
      </trkpt>
      <trkpt lat="28.229469322485" lon="-13.989077784578">
        <ele>8</ele>
        <time>2019-10-25T10:21:41Z</time>
      </trkpt>
      <trkpt lat="28.229428251175" lon="-13.989057416561">
        <ele>8</ele>
        <time>2019-10-25T10:21:42Z</time>
      </trkpt>
      <trkpt lat="28.229308557643" lon="-13.988999413813">
        <ele>8</ele>
        <time>2019-10-25T10:21:45Z</time>
      </trkpt>
      <trkpt lat="28.229225660652" lon="-13.989003101849">
        <ele>7.8</ele>
        <time>2019-10-25T10:21:47Z</time>
      </trkpt>
      <trkpt lat="28.229166568257" lon="-13.989078538949">
        <ele>7.4</ele>
        <time>2019-10-25T10:21:49Z</time>
      </trkpt>
      <trkpt lat="28.229095992659" lon="-13.989163028501">
        <ele>7.2</ele>
        <time>2019-10-25T10:21:51Z</time>
      </trkpt>
      <trkpt lat="28.22889893419" lon="-13.98924441675">
        <ele>7.2</ele>
        <time>2019-10-25T10:21:55Z</time>
      </trkpt>
      <trkpt lat="28.228857108509" lon="-13.989261599645">
        <ele>7.4</ele>
        <time>2019-10-25T10:21:56Z</time>
      </trkpt>
    </trkseg>
  </trk>
</gpx>